<?xml version="1.0" encoding="UTF-8" standalone="no" ?>
<gpx xmlns="http://www.topografix.com/GPX/1/1" xmlns:xsi="http://www.w3.org/2001/XMLSchema-instance" xsi:schemaLocation="http://www.topografix.com/GPX/1/1 http://www.topografix.com/GPX/1/1/gpx.xsd" version="1.1" creator="VisuGPX - https://www.visugpx.com">
  <metadata>
    <name>Celleneuve juvignac oppidum laverune</name>
  </metadata>
  <trk>
    <name><![CDATA[Celleneuve juvignac oppidum laverune_1]]></name>
    <extensions>
      <line xmlns="http://www.topografix.com/GPX/gpx_style/0/2">
        <color>0000FF</color>
        <width>4</width>
      </line>
    </extensions>
    <trkseg>
      <trkpt lat="43.61097" lon="3.82846">
        <ele>58.7</ele>
        <time>2021-12-01T10:16:58Z</time>
      </trkpt>
      <trkpt lat="43.61097" lon="3.82846">
        <ele>58.7</ele>
        <time>2021-12-01T10:16:58Z</time>
      </trkpt>
      <trkpt lat="43.61169" lon="3.82892">
        <ele>56.9</ele>
        <time>2021-12-01T10:17:08Z</time>
      </trkpt>
      <trkpt lat="43.61168" lon="3.8284">
        <ele>56.2</ele>
        <time>2021-12-01T10:17:18Z</time>
      </trkpt>
      <trkpt lat="43.61171" lon="3.82775">
        <ele>55.1</ele>
        <time>2021-12-01T10:17:28Z</time>
      </trkpt>
      <trkpt lat="43.61177" lon="3.82709">
        <ele>54.8</ele>
        <time>2021-12-01T10:17:38Z</time>
      </trkpt>
      <trkpt lat="43.61189" lon="3.82643">
        <ele>54.8</ele>
        <time>2021-12-01T10:17:48Z</time>
      </trkpt>
      <trkpt lat="43.612" lon="3.82574">
        <ele>54.1</ele>
        <time>2021-12-01T10:17:58Z</time>
      </trkpt>
      <trkpt lat="43.6123" lon="3.82531">
        <ele>53.3</ele>
        <time>2021-12-01T10:18:08Z</time>
      </trkpt>
      <trkpt lat="43.61276" lon="3.825">
        <ele>51.8</ele>
        <time>2021-12-01T10:18:18Z</time>
      </trkpt>
      <trkpt lat="43.61312" lon="3.82432">
        <ele>50.2</ele>
        <time>2021-12-01T10:18:28Z</time>
      </trkpt>
      <trkpt lat="43.61308" lon="3.82353">
        <ele>51.2</ele>
        <time>2021-12-01T10:18:38Z</time>
      </trkpt>
      <trkpt lat="43.61334" lon="3.82301">
        <ele>52.8</ele>
        <time>2021-12-01T10:18:48Z</time>
      </trkpt>
      <trkpt lat="43.61392" lon="3.82257">
        <ele>45.5</ele>
        <time>2021-12-01T10:18:58Z</time>
      </trkpt>
      <trkpt lat="43.61467" lon="3.82211">
        <ele>43.5</ele>
        <time>2021-12-01T10:19:08Z</time>
      </trkpt>
      <trkpt lat="43.61516" lon="3.82184">
        <ele>43.6</ele>
        <time>2021-12-01T10:19:18Z</time>
      </trkpt>
      <trkpt lat="43.61526" lon="3.82114">
        <ele>42.4</ele>
        <time>2021-12-01T10:19:28Z</time>
      </trkpt>
      <trkpt lat="43.61533" lon="3.82036">
        <ele>40.4</ele>
        <time>2021-12-01T10:19:38Z</time>
      </trkpt>
      <trkpt lat="43.61538" lon="3.81995">
        <ele>38.8</ele>
        <time>2021-12-01T10:19:48Z</time>
      </trkpt>
      <trkpt lat="43.61551" lon="3.81931">
        <ele>37.5</ele>
        <time>2021-12-01T10:19:58Z</time>
      </trkpt>
      <trkpt lat="43.61552" lon="3.81863">
        <ele>36.7</ele>
        <time>2021-12-01T10:20:08Z</time>
      </trkpt>
      <trkpt lat="43.61538" lon="3.81805">
        <ele>37</ele>
        <time>2021-12-01T10:20:18Z</time>
      </trkpt>
      <trkpt lat="43.61522" lon="3.81747">
        <ele>36.2</ele>
        <time>2021-12-01T10:20:28Z</time>
      </trkpt>
      <trkpt lat="43.61506" lon="3.8169">
        <ele>33.7</ele>
        <time>2021-12-01T10:20:38Z</time>
      </trkpt>
      <trkpt lat="43.6149" lon="3.81634">
        <ele>36.7</ele>
        <time>2021-12-01T10:20:48Z</time>
      </trkpt>
      <trkpt lat="43.61482" lon="3.81582">
        <ele>38</ele>
        <time>2021-12-01T10:20:58Z</time>
      </trkpt>
      <trkpt lat="43.61478" lon="3.81536">
        <ele>39</ele>
        <time>2021-12-01T10:21:08Z</time>
      </trkpt>
      <trkpt lat="43.61467" lon="3.8151">
        <ele>41.2</ele>
        <time>2021-12-01T10:21:18Z</time>
      </trkpt>
      <trkpt lat="43.61456" lon="3.8147">
        <ele>41.7</ele>
        <time>2021-12-01T10:21:28Z</time>
      </trkpt>
      <trkpt lat="43.61444" lon="3.81438">
        <ele>41.7</ele>
        <time>2021-12-01T10:21:38Z</time>
      </trkpt>
      <trkpt lat="43.61432" lon="3.81404">
        <ele>43.1</ele>
        <time>2021-12-01T10:21:48Z</time>
      </trkpt>
      <trkpt lat="43.61421" lon="3.81341">
        <ele>44</ele>
        <time>2021-12-01T10:21:58Z</time>
      </trkpt>
      <trkpt lat="43.61411" lon="3.81282">
        <ele>45.6</ele>
        <time>2021-12-01T10:22:08Z</time>
      </trkpt>
      <trkpt lat="43.61409" lon="3.81228">
        <ele>47.3</ele>
        <time>2021-12-01T10:22:18Z</time>
      </trkpt>
      <trkpt lat="43.61408" lon="3.81172">
        <ele>48.2</ele>
        <time>2021-12-01T10:22:28Z</time>
      </trkpt>
      <trkpt lat="43.61405" lon="3.81119">
        <ele>49.5</ele>
        <time>2021-12-01T10:22:38Z</time>
      </trkpt>
      <trkpt lat="43.61416" lon="3.81074">
        <ele>50.3</ele>
        <time>2021-12-01T10:22:48Z</time>
      </trkpt>
      <trkpt lat="43.61401" lon="3.81042">
        <ele>50.9</ele>
        <time>2021-12-01T10:22:58Z</time>
      </trkpt>
      <trkpt lat="43.61395" lon="3.80995">
        <ele>51.6</ele>
        <time>2021-12-01T10:23:08Z</time>
      </trkpt>
      <trkpt lat="43.61392" lon="3.8095">
        <ele>53</ele>
        <time>2021-12-01T10:23:18Z</time>
      </trkpt>
      <trkpt lat="43.61387" lon="3.80895">
        <ele>54.7</ele>
        <time>2021-12-01T10:23:28Z</time>
      </trkpt>
      <trkpt lat="43.61385" lon="3.8084">
        <ele>54.8</ele>
        <time>2021-12-01T10:23:38Z</time>
      </trkpt>
      <trkpt lat="43.61383" lon="3.80782">
        <ele>55.2</ele>
        <time>2021-12-01T10:23:48Z</time>
      </trkpt>
      <trkpt lat="43.61386" lon="3.80726">
        <ele>54.8</ele>
        <time>2021-12-01T10:23:58Z</time>
      </trkpt>
      <trkpt lat="43.61392" lon="3.80669">
        <ele>55.1</ele>
        <time>2021-12-01T10:24:08Z</time>
      </trkpt>
      <trkpt lat="43.61399" lon="3.80609">
        <ele>56.4</ele>
        <time>2021-12-01T10:24:18Z</time>
      </trkpt>
      <trkpt lat="43.61395" lon="3.80552">
        <ele>57.1</ele>
        <time>2021-12-01T10:24:28Z</time>
      </trkpt>
      <trkpt lat="43.61399" lon="3.80495">
        <ele>58</ele>
        <time>2021-12-01T10:24:38Z</time>
      </trkpt>
      <trkpt lat="43.61404" lon="3.80437">
        <ele>58.6</ele>
        <time>2021-12-01T10:24:48Z</time>
      </trkpt>
      <trkpt lat="43.61408" lon="3.8038">
        <ele>59.9</ele>
        <time>2021-12-01T10:24:58Z</time>
      </trkpt>
      <trkpt lat="43.61412" lon="3.80323">
        <ele>60.6</ele>
        <time>2021-12-01T10:25:08Z</time>
      </trkpt>
      <trkpt lat="43.61417" lon="3.80268">
        <ele>61.4</ele>
        <time>2021-12-01T10:25:18Z</time>
      </trkpt>
      <trkpt lat="43.61426" lon="3.8021">
        <ele>62.8</ele>
        <time>2021-12-01T10:25:28Z</time>
      </trkpt>
      <trkpt lat="43.61437" lon="3.80154">
        <ele>64</ele>
        <time>2021-12-01T10:25:38Z</time>
      </trkpt>
      <trkpt lat="43.61448" lon="3.80102">
        <ele>65</ele>
        <time>2021-12-01T10:25:48Z</time>
      </trkpt>
      <trkpt lat="43.61465" lon="3.80062">
        <ele>65.9</ele>
        <time>2021-12-01T10:25:58Z</time>
      </trkpt>
      <trkpt lat="43.61454" lon="3.80032">
        <ele>66.3</ele>
        <time>2021-12-01T10:26:08Z</time>
      </trkpt>
      <trkpt lat="43.61425" lon="3.79973">
        <ele>63.2</ele>
        <time>2021-12-01T10:26:18Z</time>
      </trkpt>
      <trkpt lat="43.61389" lon="3.79895">
        <ele>63</ele>
        <time>2021-12-01T10:26:28Z</time>
      </trkpt>
      <trkpt lat="43.61394" lon="3.7984">
        <ele>61.9</ele>
        <time>2021-12-01T10:26:38Z</time>
      </trkpt>
      <trkpt lat="43.61411" lon="3.79757">
        <ele>58.7</ele>
        <time>2021-12-01T10:26:48Z</time>
      </trkpt>
      <trkpt lat="43.61439" lon="3.79663">
        <ele>55.5</ele>
        <time>2021-12-01T10:26:58Z</time>
      </trkpt>
      <trkpt lat="43.61454" lon="3.79562">
        <ele>52.6</ele>
        <time>2021-12-01T10:27:08Z</time>
      </trkpt>
      <trkpt lat="43.6146" lon="3.79474">
        <ele>52.6</ele>
        <time>2021-12-01T10:27:18Z</time>
      </trkpt>
      <trkpt lat="43.6147" lon="3.79398">
        <ele>52.4</ele>
        <time>2021-12-01T10:27:28Z</time>
      </trkpt>
      <trkpt lat="43.61493" lon="3.79327">
        <ele>53.8</ele>
        <time>2021-12-01T10:27:38Z</time>
      </trkpt>
      <trkpt lat="43.61514" lon="3.79256">
        <ele>54.5</ele>
        <time>2021-12-01T10:27:48Z</time>
      </trkpt>
      <trkpt lat="43.61532" lon="3.79189">
        <ele>54.5</ele>
        <time>2021-12-01T10:27:58Z</time>
      </trkpt>
      <trkpt lat="43.61545" lon="3.79133">
        <ele>56.5</ele>
        <time>2021-12-01T10:28:08Z</time>
      </trkpt>
      <trkpt lat="43.61556" lon="3.79083">
        <ele>56</ele>
        <time>2021-12-01T10:28:18Z</time>
      </trkpt>
      <trkpt lat="43.61564" lon="3.79037">
        <ele>58.3</ele>
        <time>2021-12-01T10:28:28Z</time>
      </trkpt>
      <trkpt lat="43.61566" lon="3.78988">
        <ele>58.7</ele>
        <time>2021-12-01T10:28:38Z</time>
      </trkpt>
      <trkpt lat="43.6156" lon="3.7894">
        <ele>58.5</ele>
        <time>2021-12-01T10:28:48Z</time>
      </trkpt>
      <trkpt lat="43.61553" lon="3.78897">
        <ele>57.6</ele>
        <time>2021-12-01T10:28:58Z</time>
      </trkpt>
      <trkpt lat="43.61548" lon="3.78852">
        <ele>59.9</ele>
        <time>2021-12-01T10:29:08Z</time>
      </trkpt>
      <trkpt lat="43.61551" lon="3.78807">
        <ele>59.8</ele>
        <time>2021-12-01T10:29:18Z</time>
      </trkpt>
      <trkpt lat="43.61574" lon="3.78766">
        <ele>59.8</ele>
        <time>2021-12-01T10:29:28Z</time>
      </trkpt>
      <trkpt lat="43.61587" lon="3.78739">
        <ele>60.9</ele>
        <time>2021-12-01T10:29:38Z</time>
      </trkpt>
      <trkpt lat="43.616" lon="3.78717">
        <ele>63.3</ele>
        <time>2021-12-01T10:29:48Z</time>
      </trkpt>
      <trkpt lat="43.61614" lon="3.78695">
        <ele>63.9</ele>
        <time>2021-12-01T10:29:58Z</time>
      </trkpt>
      <trkpt lat="43.61625" lon="3.78675">
        <ele>66.3</ele>
        <time>2021-12-01T10:30:08Z</time>
      </trkpt>
      <trkpt lat="43.61637" lon="3.78657">
        <ele>67.6</ele>
        <time>2021-12-01T10:30:18Z</time>
      </trkpt>
      <trkpt lat="43.61655" lon="3.78635">
        <ele>69.3</ele>
        <time>2021-12-01T10:30:28Z</time>
      </trkpt>
      <trkpt lat="43.61668" lon="3.78616">
        <ele>70.4</ele>
        <time>2021-12-01T10:30:38Z</time>
      </trkpt>
      <trkpt lat="43.61676" lon="3.786">
        <ele>72.1</ele>
        <time>2021-12-01T10:30:48Z</time>
      </trkpt>
      <trkpt lat="43.61686" lon="3.78581">
        <ele>73.8</ele>
        <time>2021-12-01T10:30:58Z</time>
      </trkpt>
      <trkpt lat="43.61697" lon="3.78561">
        <ele>75.4</ele>
        <time>2021-12-01T10:31:08Z</time>
      </trkpt>
      <trkpt lat="43.61707" lon="3.78541">
        <ele>77</ele>
        <time>2021-12-01T10:31:18Z</time>
      </trkpt>
      <trkpt lat="43.61715" lon="3.7852">
        <ele>78.6</ele>
        <time>2021-12-01T10:31:28Z</time>
      </trkpt>
      <trkpt lat="43.61723" lon="3.78495">
        <ele>80.1</ele>
        <time>2021-12-01T10:31:38Z</time>
      </trkpt>
      <trkpt lat="43.61729" lon="3.78467">
        <ele>80.7</ele>
        <time>2021-12-01T10:31:48Z</time>
      </trkpt>
      <trkpt lat="43.6173" lon="3.78433">
        <ele>80.9</ele>
        <time>2021-12-01T10:31:58Z</time>
      </trkpt>
      <trkpt lat="43.6172" lon="3.78378">
        <ele>79.8</ele>
        <time>2021-12-01T10:32:08Z</time>
      </trkpt>
      <trkpt lat="43.61718" lon="3.78314">
        <ele>80</ele>
        <time>2021-12-01T10:32:18Z</time>
      </trkpt>
      <trkpt lat="43.61727" lon="3.78268">
        <ele>81.3</ele>
        <time>2021-12-01T10:32:28Z</time>
      </trkpt>
      <trkpt lat="43.61737" lon="3.78223">
        <ele>82.8</ele>
        <time>2021-12-01T10:32:38Z</time>
      </trkpt>
      <trkpt lat="43.61748" lon="3.78172">
        <ele>83.8</ele>
        <time>2021-12-01T10:32:48Z</time>
      </trkpt>
      <trkpt lat="43.6176" lon="3.78123">
        <ele>84.7</ele>
        <time>2021-12-01T10:32:58Z</time>
      </trkpt>
      <trkpt lat="43.61783" lon="3.78082">
        <ele>85.5</ele>
        <time>2021-12-01T10:33:08Z</time>
      </trkpt>
      <trkpt lat="43.61814" lon="3.78046">
        <ele>85.1</ele>
        <time>2021-12-01T10:33:18Z</time>
      </trkpt>
      <trkpt lat="43.61832" lon="3.77998">
        <ele>87.1</ele>
        <time>2021-12-01T10:33:28Z</time>
      </trkpt>
      <trkpt lat="43.61839" lon="3.7795">
        <ele>89.4</ele>
        <time>2021-12-01T10:33:38Z</time>
      </trkpt>
      <trkpt lat="43.61839" lon="3.77901">
        <ele>90.7</ele>
        <time>2021-12-01T10:33:48Z</time>
      </trkpt>
      <trkpt lat="43.61828" lon="3.77867">
        <ele>91.5</ele>
        <time>2021-12-01T10:33:58Z</time>
      </trkpt>
      <trkpt lat="43.61799" lon="3.77867">
        <ele>94</ele>
        <time>2021-12-01T10:34:08Z</time>
      </trkpt>
      <trkpt lat="43.61794" lon="3.77833">
        <ele>96.1</ele>
        <time>2021-12-01T10:34:18Z</time>
      </trkpt>
      <trkpt lat="43.61803" lon="3.77792">
        <ele>95.8</ele>
        <time>2021-12-01T10:34:28Z</time>
      </trkpt>
      <trkpt lat="43.61813" lon="3.77749">
        <ele>96.2</ele>
        <time>2021-12-01T10:34:38Z</time>
      </trkpt>
      <trkpt lat="43.61825" lon="3.77707">
        <ele>96.8</ele>
        <time>2021-12-01T10:34:48Z</time>
      </trkpt>
      <trkpt lat="43.61834" lon="3.77664">
        <ele>97.9</ele>
        <time>2021-12-01T10:34:58Z</time>
      </trkpt>
      <trkpt lat="43.6185" lon="3.77628">
        <ele>97.3</ele>
        <time>2021-12-01T10:35:08Z</time>
      </trkpt>
      <trkpt lat="43.61858" lon="3.77587">
        <ele>99</ele>
        <time>2021-12-01T10:35:18Z</time>
      </trkpt>
      <trkpt lat="43.6187" lon="3.77548">
        <ele>100</ele>
        <time>2021-12-01T10:35:28Z</time>
      </trkpt>
      <trkpt lat="43.61882" lon="3.77507">
        <ele>100.3</ele>
        <time>2021-12-01T10:35:38Z</time>
      </trkpt>
      <trkpt lat="43.61895" lon="3.77465">
        <ele>101.6</ele>
        <time>2021-12-01T10:35:48Z</time>
      </trkpt>
      <trkpt lat="43.61904" lon="3.77431">
        <ele>102.3</ele>
        <time>2021-12-01T10:35:58Z</time>
      </trkpt>
      <trkpt lat="43.61922" lon="3.77392">
        <ele>103.4</ele>
        <time>2021-12-01T10:36:08Z</time>
      </trkpt>
      <trkpt lat="43.6194" lon="3.77351">
        <ele>104.7</ele>
        <time>2021-12-01T10:36:18Z</time>
      </trkpt>
      <trkpt lat="43.61959" lon="3.77307">
        <ele>106.2</ele>
        <time>2021-12-01T10:36:28Z</time>
      </trkpt>
      <trkpt lat="43.61977" lon="3.77261">
        <ele>105.9</ele>
        <time>2021-12-01T10:36:38Z</time>
      </trkpt>
      <trkpt lat="43.61996" lon="3.77212">
        <ele>105.4</ele>
        <time>2021-12-01T10:36:48Z</time>
      </trkpt>
      <trkpt lat="43.62015" lon="3.77165">
        <ele>103</ele>
        <time>2021-12-01T10:36:58Z</time>
      </trkpt>
      <trkpt lat="43.62035" lon="3.77117">
        <ele>103.4</ele>
        <time>2021-12-01T10:37:08Z</time>
      </trkpt>
      <trkpt lat="43.62054" lon="3.7707">
        <ele>106.9</ele>
        <time>2021-12-01T10:37:18Z</time>
      </trkpt>
      <trkpt lat="43.62073" lon="3.77024">
        <ele>110.6</ele>
        <time>2021-12-01T10:37:28Z</time>
      </trkpt>
      <trkpt lat="43.62092" lon="3.76977">
        <ele>113</ele>
        <time>2021-12-01T10:37:38Z</time>
      </trkpt>
      <trkpt lat="43.62111" lon="3.76933">
        <ele>113.6</ele>
        <time>2021-12-01T10:37:48Z</time>
      </trkpt>
      <trkpt lat="43.62127" lon="3.76888">
        <ele>113.9</ele>
        <time>2021-12-01T10:37:58Z</time>
      </trkpt>
      <trkpt lat="43.62142" lon="3.76842">
        <ele>114.4</ele>
        <time>2021-12-01T10:38:08Z</time>
      </trkpt>
      <trkpt lat="43.62156" lon="3.768">
        <ele>115.4</ele>
        <time>2021-12-01T10:38:18Z</time>
      </trkpt>
      <trkpt lat="43.62169" lon="3.76748">
        <ele>114.9</ele>
        <time>2021-12-01T10:38:28Z</time>
      </trkpt>
      <trkpt lat="43.62182" lon="3.767">
        <ele>116.4</ele>
        <time>2021-12-01T10:38:38Z</time>
      </trkpt>
      <trkpt lat="43.62197" lon="3.76652">
        <ele>117.2</ele>
        <time>2021-12-01T10:38:48Z</time>
      </trkpt>
      <trkpt lat="43.6221" lon="3.76603">
        <ele>117.8</ele>
        <time>2021-12-01T10:38:58Z</time>
      </trkpt>
      <trkpt lat="43.62223" lon="3.76552">
        <ele>119</ele>
        <time>2021-12-01T10:39:08Z</time>
      </trkpt>
      <trkpt lat="43.62236" lon="3.765">
        <ele>118.5</ele>
        <time>2021-12-01T10:39:18Z</time>
      </trkpt>
      <trkpt lat="43.62248" lon="3.76444">
        <ele>120.3</ele>
        <time>2021-12-01T10:39:28Z</time>
      </trkpt>
      <trkpt lat="43.62258" lon="3.76393">
        <ele>120.4</ele>
        <time>2021-12-01T10:39:38Z</time>
      </trkpt>
      <trkpt lat="43.62266" lon="3.7634">
        <ele>120.6</ele>
        <time>2021-12-01T10:39:48Z</time>
      </trkpt>
      <trkpt lat="43.62273" lon="3.76287">
        <ele>121.9</ele>
        <time>2021-12-01T10:39:58Z</time>
      </trkpt>
      <trkpt lat="43.62278" lon="3.76236">
        <ele>123.5</ele>
        <time>2021-12-01T10:40:08Z</time>
      </trkpt>
      <trkpt lat="43.62285" lon="3.76201">
        <ele>124.9</ele>
        <time>2021-12-01T10:40:18Z</time>
      </trkpt>
      <trkpt lat="43.62295" lon="3.76171">
        <ele>127</ele>
        <time>2021-12-01T10:40:28Z</time>
      </trkpt>
      <trkpt lat="43.62303" lon="3.76144">
        <ele>128.5</ele>
        <time>2021-12-01T10:40:38Z</time>
      </trkpt>
      <trkpt lat="43.6231" lon="3.76119">
        <ele>130.5</ele>
        <time>2021-12-01T10:40:48Z</time>
      </trkpt>
      <trkpt lat="43.62315" lon="3.76093">
        <ele>131.9</ele>
        <time>2021-12-01T10:40:58Z</time>
      </trkpt>
      <trkpt lat="43.62323" lon="3.76072">
        <ele>133.8</ele>
        <time>2021-12-01T10:41:08Z</time>
      </trkpt>
      <trkpt lat="43.62329" lon="3.7605">
        <ele>135.1</ele>
        <time>2021-12-01T10:41:18Z</time>
      </trkpt>
      <trkpt lat="43.62333" lon="3.76024">
        <ele>136.1</ele>
        <time>2021-12-01T10:41:28Z</time>
      </trkpt>
      <trkpt lat="43.62337" lon="3.75999">
        <ele>137.7</ele>
        <time>2021-12-01T10:41:38Z</time>
      </trkpt>
      <trkpt lat="43.62343" lon="3.75976">
        <ele>139.3</ele>
        <time>2021-12-01T10:41:48Z</time>
      </trkpt>
      <trkpt lat="43.62352" lon="3.75958">
        <ele>141.4</ele>
        <time>2021-12-01T10:41:58Z</time>
      </trkpt>
      <trkpt lat="43.62361" lon="3.75941">
        <ele>143</ele>
        <time>2021-12-01T10:42:08Z</time>
      </trkpt>
      <trkpt lat="43.62369" lon="3.75921">
        <ele>143.8</ele>
        <time>2021-12-01T10:42:18Z</time>
      </trkpt>
      <trkpt lat="43.6237" lon="3.75895">
        <ele>145.3</ele>
        <time>2021-12-01T10:42:28Z</time>
      </trkpt>
      <trkpt lat="43.62367" lon="3.75866">
        <ele>146.2</ele>
        <time>2021-12-01T10:42:38Z</time>
      </trkpt>
      <trkpt lat="43.62376" lon="3.75846">
        <ele>147.9</ele>
        <time>2021-12-01T10:42:48Z</time>
      </trkpt>
      <trkpt lat="43.62382" lon="3.75824">
        <ele>149.6</ele>
        <time>2021-12-01T10:42:58Z</time>
      </trkpt>
      <trkpt lat="43.62383" lon="3.758">
        <ele>150.8</ele>
        <time>2021-12-01T10:43:08Z</time>
      </trkpt>
      <trkpt lat="43.6238" lon="3.75775">
        <ele>152.1</ele>
        <time>2021-12-01T10:43:18Z</time>
      </trkpt>
      <trkpt lat="43.6238" lon="3.75749">
        <ele>153.1</ele>
        <time>2021-12-01T10:43:28Z</time>
      </trkpt>
      <trkpt lat="43.6238" lon="3.75723">
        <ele>154</ele>
        <time>2021-12-01T10:43:38Z</time>
      </trkpt>
      <trkpt lat="43.62383" lon="3.75696">
        <ele>155.3</ele>
        <time>2021-12-01T10:43:48Z</time>
      </trkpt>
      <trkpt lat="43.6239" lon="3.75674">
        <ele>156.9</ele>
        <time>2021-12-01T10:43:58Z</time>
      </trkpt>
      <trkpt lat="43.62396" lon="3.75651">
        <ele>158.3</ele>
        <time>2021-12-01T10:44:08Z</time>
      </trkpt>
      <trkpt lat="43.62403" lon="3.75628">
        <ele>159.9</ele>
        <time>2021-12-01T10:44:18Z</time>
      </trkpt>
      <trkpt lat="43.62411" lon="3.75607">
        <ele>161.7</ele>
        <time>2021-12-01T10:44:28Z</time>
      </trkpt>
      <trkpt lat="43.62422" lon="3.75591">
        <ele>163.7</ele>
        <time>2021-12-01T10:44:38Z</time>
      </trkpt>
      <trkpt lat="43.62435" lon="3.75577">
        <ele>164.9</ele>
        <time>2021-12-01T10:44:48Z</time>
      </trkpt>
      <trkpt lat="43.62446" lon="3.75559">
        <ele>165.9</ele>
        <time>2021-12-01T10:44:58Z</time>
      </trkpt>
      <trkpt lat="43.62466" lon="3.75565">
        <ele>166.2</ele>
        <time>2021-12-01T10:45:08Z</time>
      </trkpt>
      <trkpt lat="43.62503" lon="3.75586">
        <ele>163.6</ele>
        <time>2021-12-01T10:45:18Z</time>
      </trkpt>
      <trkpt lat="43.62515" lon="3.75544">
        <ele>165.2</ele>
        <time>2021-12-01T10:45:28Z</time>
      </trkpt>
      <trkpt lat="43.62523" lon="3.75507">
        <ele>166.3</ele>
        <time>2021-12-01T10:45:38Z</time>
      </trkpt>
      <trkpt lat="43.62534" lon="3.75472">
        <ele>168.3</ele>
        <time>2021-12-01T10:45:48Z</time>
      </trkpt>
      <trkpt lat="43.62539" lon="3.75441">
        <ele>169.4</ele>
        <time>2021-12-01T10:45:58Z</time>
      </trkpt>
      <trkpt lat="43.62545" lon="3.75411">
        <ele>171.2</ele>
        <time>2021-12-01T10:46:08Z</time>
      </trkpt>
      <trkpt lat="43.62548" lon="3.75385">
        <ele>172.8</ele>
        <time>2021-12-01T10:46:18Z</time>
      </trkpt>
      <trkpt lat="43.62548" lon="3.7536">
        <ele>174.3</ele>
        <time>2021-12-01T10:46:28Z</time>
      </trkpt>
      <trkpt lat="43.62543" lon="3.75337">
        <ele>175.8</ele>
        <time>2021-12-01T10:46:38Z</time>
      </trkpt>
      <trkpt lat="43.62538" lon="3.75313">
        <ele>176.7</ele>
        <time>2021-12-01T10:46:48Z</time>
      </trkpt>
      <trkpt lat="43.62535" lon="3.75281">
        <ele>177.9</ele>
        <time>2021-12-01T10:46:58Z</time>
      </trkpt>
      <trkpt lat="43.62536" lon="3.75247">
        <ele>179</ele>
        <time>2021-12-01T10:47:08Z</time>
      </trkpt>
      <trkpt lat="43.62534" lon="3.7521">
        <ele>178.8</ele>
        <time>2021-12-01T10:47:18Z</time>
      </trkpt>
      <trkpt lat="43.62533" lon="3.75169">
        <ele>178.1</ele>
        <time>2021-12-01T10:47:28Z</time>
      </trkpt>
      <trkpt lat="43.62536" lon="3.75121">
        <ele>176.4</ele>
        <time>2021-12-01T10:47:38Z</time>
      </trkpt>
      <trkpt lat="43.62511" lon="3.7507">
        <ele>173</ele>
        <time>2021-12-01T10:47:48Z</time>
      </trkpt>
      <trkpt lat="43.62479" lon="3.75046">
        <ele>170.2</ele>
        <time>2021-12-01T10:47:58Z</time>
      </trkpt>
      <trkpt lat="43.62449" lon="3.75059">
        <ele>169.6</ele>
        <time>2021-12-01T10:48:08Z</time>
      </trkpt>
      <trkpt lat="43.62418" lon="3.75076">
        <ele>168.6</ele>
        <time>2021-12-01T10:48:18Z</time>
      </trkpt>
      <trkpt lat="43.62381" lon="3.75067">
        <ele>163.9</ele>
        <time>2021-12-01T10:48:28Z</time>
      </trkpt>
      <trkpt lat="43.62355" lon="3.75089">
        <ele>160.9</ele>
        <time>2021-12-01T10:48:38Z</time>
      </trkpt>
      <trkpt lat="43.62325" lon="3.7511">
        <ele>156.5</ele>
        <time>2021-12-01T10:48:48Z</time>
      </trkpt>
      <trkpt lat="43.62303" lon="3.75092">
        <ele>152</ele>
        <time>2021-12-01T10:48:58Z</time>
      </trkpt>
      <trkpt lat="43.62276" lon="3.75099">
        <ele>148.7</ele>
        <time>2021-12-01T10:49:08Z</time>
      </trkpt>
      <trkpt lat="43.62252" lon="3.75112">
        <ele>145.3</ele>
        <time>2021-12-01T10:49:18Z</time>
      </trkpt>
      <trkpt lat="43.62226" lon="3.75094">
        <ele>142.4</ele>
        <time>2021-12-01T10:49:28Z</time>
      </trkpt>
      <trkpt lat="43.62192" lon="3.75076">
        <ele>137.4</ele>
        <time>2021-12-01T10:49:38Z</time>
      </trkpt>
      <trkpt lat="43.62167" lon="3.75035">
        <ele>130.8</ele>
        <time>2021-12-01T10:49:48Z</time>
      </trkpt>
      <trkpt lat="43.62155" lon="3.74984">
        <ele>122</ele>
        <time>2021-12-01T10:49:58Z</time>
      </trkpt>
      <trkpt lat="43.62141" lon="3.74928">
        <ele>114.1</ele>
        <time>2021-12-01T10:50:08Z</time>
      </trkpt>
      <trkpt lat="43.62123" lon="3.74877">
        <ele>108.6</ele>
        <time>2021-12-01T10:50:18Z</time>
      </trkpt>
      <trkpt lat="43.62103" lon="3.7483">
        <ele>104.2</ele>
        <time>2021-12-01T10:50:28Z</time>
      </trkpt>
      <trkpt lat="43.62068" lon="3.74855">
        <ele>101.5</ele>
        <time>2021-12-01T10:50:38Z</time>
      </trkpt>
      <trkpt lat="43.62059" lon="3.74903">
        <ele>100.4</ele>
        <time>2021-12-01T10:50:48Z</time>
      </trkpt>
      <trkpt lat="43.62041" lon="3.74938">
        <ele>100.7</ele>
        <time>2021-12-01T10:50:58Z</time>
      </trkpt>
      <trkpt lat="43.62022" lon="3.74982">
        <ele>99.3</ele>
        <time>2021-12-01T10:51:08Z</time>
      </trkpt>
      <trkpt lat="43.61995" lon="3.75024">
        <ele>98.5</ele>
        <time>2021-12-01T10:51:18Z</time>
      </trkpt>
      <trkpt lat="43.61958" lon="3.75044">
        <ele>98.4</ele>
        <time>2021-12-01T10:51:28Z</time>
      </trkpt>
      <trkpt lat="43.61921" lon="3.75069">
        <ele>97.7</ele>
        <time>2021-12-01T10:51:38Z</time>
      </trkpt>
      <trkpt lat="43.61878" lon="3.75082">
        <ele>96.7</ele>
        <time>2021-12-01T10:51:48Z</time>
      </trkpt>
      <trkpt lat="43.61836" lon="3.75097">
        <ele>96.5</ele>
        <time>2021-12-01T10:51:58Z</time>
      </trkpt>
      <trkpt lat="43.61799" lon="3.75118">
        <ele>96.4</ele>
        <time>2021-12-01T10:52:08Z</time>
      </trkpt>
      <trkpt lat="43.61801" lon="3.75076">
        <ele>97.1</ele>
        <time>2021-12-01T10:52:18Z</time>
      </trkpt>
      <trkpt lat="43.61805" lon="3.75043">
        <ele>97.5</ele>
        <time>2021-12-01T10:52:28Z</time>
      </trkpt>
      <trkpt lat="43.61791" lon="3.75057">
        <ele>98</ele>
        <time>2021-12-01T10:52:38Z</time>
      </trkpt>
      <trkpt lat="43.61761" lon="3.75081">
        <ele>97.9</ele>
        <time>2021-12-01T10:52:48Z</time>
      </trkpt>
      <trkpt lat="43.61733" lon="3.75117">
        <ele>97.9</ele>
        <time>2021-12-01T10:52:58Z</time>
      </trkpt>
      <trkpt lat="43.61703" lon="3.75123">
        <ele>98.1</ele>
        <time>2021-12-01T10:53:08Z</time>
      </trkpt>
      <trkpt lat="43.61682" lon="3.75136">
        <ele>99.1</ele>
        <time>2021-12-01T10:53:18Z</time>
      </trkpt>
      <trkpt lat="43.61667" lon="3.75154">
        <ele>98.8</ele>
        <time>2021-12-01T10:53:28Z</time>
      </trkpt>
      <trkpt lat="43.61649" lon="3.75166">
        <ele>100.9</ele>
        <time>2021-12-01T10:53:38Z</time>
      </trkpt>
      <trkpt lat="43.61651" lon="3.75152">
        <ele>102.8</ele>
        <time>2021-12-01T10:53:48Z</time>
      </trkpt>
      <trkpt lat="43.61657" lon="3.75135">
        <ele>104</ele>
        <time>2021-12-01T10:53:58Z</time>
      </trkpt>
      <trkpt lat="43.61659" lon="3.75114">
        <ele>106.5</ele>
        <time>2021-12-01T10:54:08Z</time>
      </trkpt>
      <trkpt lat="43.61651" lon="3.75098">
        <ele>108.7</ele>
        <time>2021-12-01T10:54:18Z</time>
      </trkpt>
      <trkpt lat="43.61642" lon="3.75087">
        <ele>111.1</ele>
        <time>2021-12-01T10:54:28Z</time>
      </trkpt>
      <trkpt lat="43.61632" lon="3.75075">
        <ele>112.5</ele>
        <time>2021-12-01T10:54:38Z</time>
      </trkpt>
      <trkpt lat="43.61619" lon="3.75065">
        <ele>113.9</ele>
        <time>2021-12-01T10:54:48Z</time>
      </trkpt>
      <trkpt lat="43.61605" lon="3.75056">
        <ele>115.2</ele>
        <time>2021-12-01T10:54:58Z</time>
      </trkpt>
      <trkpt lat="43.61591" lon="3.75054">
        <ele>117.4</ele>
        <time>2021-12-01T10:55:08Z</time>
      </trkpt>
      <trkpt lat="43.61578" lon="3.75053">
        <ele>119.1</ele>
        <time>2021-12-01T10:55:18Z</time>
      </trkpt>
      <trkpt lat="43.61564" lon="3.75053">
        <ele>120.3</ele>
        <time>2021-12-01T10:55:28Z</time>
      </trkpt>
      <trkpt lat="43.6155" lon="3.75048">
        <ele>122</ele>
        <time>2021-12-01T10:55:38Z</time>
      </trkpt>
      <trkpt lat="43.61556" lon="3.75033">
        <ele>121.7</ele>
        <time>2021-12-01T10:55:48Z</time>
      </trkpt>
      <trkpt lat="43.61562" lon="3.75018">
        <ele>121.4</ele>
        <time>2021-12-01T10:55:58Z</time>
      </trkpt>
      <trkpt lat="43.61565" lon="3.74998">
        <ele>122.9</ele>
        <time>2021-12-01T10:56:08Z</time>
      </trkpt>
      <trkpt lat="43.61571" lon="3.74979">
        <ele>124.6</ele>
        <time>2021-12-01T10:56:18Z</time>
      </trkpt>
      <trkpt lat="43.61572" lon="3.74963">
        <ele>127.2</ele>
        <time>2021-12-01T10:56:28Z</time>
      </trkpt>
      <trkpt lat="43.61563" lon="3.74954">
        <ele>129.7</ele>
        <time>2021-12-01T10:56:38Z</time>
      </trkpt>
      <trkpt lat="43.61554" lon="3.74961">
        <ele>130</ele>
        <time>2021-12-01T10:56:48Z</time>
      </trkpt>
      <trkpt lat="43.61544" lon="3.74975">
        <ele>131</ele>
        <time>2021-12-01T10:56:58Z</time>
      </trkpt>
      <trkpt lat="43.61533" lon="3.74988">
        <ele>132.3</ele>
        <time>2021-12-01T10:57:08Z</time>
      </trkpt>
      <trkpt lat="43.61521" lon="3.75">
        <ele>133.7</ele>
        <time>2021-12-01T10:57:18Z</time>
      </trkpt>
      <trkpt lat="43.61511" lon="3.75009">
        <ele>134.9</ele>
        <time>2021-12-01T10:57:28Z</time>
      </trkpt>
      <trkpt lat="43.61497" lon="3.75022">
        <ele>136.4</ele>
        <time>2021-12-01T10:57:38Z</time>
      </trkpt>
      <trkpt lat="43.61484" lon="3.75036">
        <ele>137.7</ele>
        <time>2021-12-01T10:57:48Z</time>
      </trkpt>
      <trkpt lat="43.61471" lon="3.75049">
        <ele>139.6</ele>
        <time>2021-12-01T10:57:58Z</time>
      </trkpt>
      <trkpt lat="43.61461" lon="3.75061">
        <ele>140.3</ele>
        <time>2021-12-01T10:58:08Z</time>
      </trkpt>
      <trkpt lat="43.61451" lon="3.75064">
        <ele>141.4</ele>
        <time>2021-12-01T10:58:18Z</time>
      </trkpt>
      <trkpt lat="43.61447" lon="3.75047">
        <ele>142.3</ele>
        <time>2021-12-01T10:58:28Z</time>
      </trkpt>
      <trkpt lat="43.61444" lon="3.75027">
        <ele>144</ele>
        <time>2021-12-01T10:58:38Z</time>
      </trkpt>
      <trkpt lat="43.61447" lon="3.75012">
        <ele>145.4</ele>
        <time>2021-12-01T10:58:48Z</time>
      </trkpt>
      <trkpt lat="43.61447" lon="3.74995">
        <ele>147</ele>
        <time>2021-12-01T10:58:58Z</time>
      </trkpt>
      <trkpt lat="43.61446" lon="3.74976">
        <ele>148.6</ele>
        <time>2021-12-01T10:59:08Z</time>
      </trkpt>
      <trkpt lat="43.61448" lon="3.74957">
        <ele>149.9</ele>
        <time>2021-12-01T10:59:18Z</time>
      </trkpt>
      <trkpt lat="43.61453" lon="3.74939">
        <ele>151.1</ele>
        <time>2021-12-01T10:59:28Z</time>
      </trkpt>
      <trkpt lat="43.61455" lon="3.74921">
        <ele>152.3</ele>
        <time>2021-12-01T10:59:38Z</time>
      </trkpt>
      <trkpt lat="43.61454" lon="3.74904">
        <ele>153.6</ele>
        <time>2021-12-01T10:59:48Z</time>
      </trkpt>
      <trkpt lat="43.61452" lon="3.74884">
        <ele>154.7</ele>
        <time>2021-12-01T10:59:58Z</time>
      </trkpt>
      <trkpt lat="43.61449" lon="3.74858">
        <ele>154.3</ele>
        <time>2021-12-01T11:00:08Z</time>
      </trkpt>
      <trkpt lat="43.61454" lon="3.74825">
        <ele>149.9</ele>
        <time>2021-12-01T11:00:18Z</time>
      </trkpt>
      <trkpt lat="43.61444" lon="3.74794">
        <ele>146.7</ele>
        <time>2021-12-01T11:00:28Z</time>
      </trkpt>
      <trkpt lat="43.61444" lon="3.74765">
        <ele>143.6</ele>
        <time>2021-12-01T11:00:38Z</time>
      </trkpt>
      <trkpt lat="43.61456" lon="3.74742">
        <ele>140.2</ele>
        <time>2021-12-01T11:00:48Z</time>
      </trkpt>
      <trkpt lat="43.61479" lon="3.74735">
        <ele>136.4</ele>
        <time>2021-12-01T11:00:58Z</time>
      </trkpt>
      <trkpt lat="43.61503" lon="3.74732">
        <ele>130.9</ele>
        <time>2021-12-01T11:01:08Z</time>
      </trkpt>
      <trkpt lat="43.61531" lon="3.74717">
        <ele>125</ele>
        <time>2021-12-01T11:01:18Z</time>
      </trkpt>
      <trkpt lat="43.6157" lon="3.74694">
        <ele>117.4</ele>
        <time>2021-12-01T11:01:28Z</time>
      </trkpt>
      <trkpt lat="43.61609" lon="3.74662">
        <ele>109.5</ele>
        <time>2021-12-01T11:01:38Z</time>
      </trkpt>
      <trkpt lat="43.61614" lon="3.74625">
        <ele>107.6</ele>
        <time>2021-12-01T11:01:48Z</time>
      </trkpt>
      <trkpt lat="43.61601" lon="3.74591">
        <ele>108.2</ele>
        <time>2021-12-01T11:01:58Z</time>
      </trkpt>
      <trkpt lat="43.61599" lon="3.74561">
        <ele>107</ele>
        <time>2021-12-01T11:02:08Z</time>
      </trkpt>
      <trkpt lat="43.61628" lon="3.74545">
        <ele>104.5</ele>
        <time>2021-12-01T11:02:18Z</time>
      </trkpt>
      <trkpt lat="43.61654" lon="3.74555">
        <ele>107.3</ele>
        <time>2021-12-01T11:02:28Z</time>
      </trkpt>
      <trkpt lat="43.61666" lon="3.74568">
        <ele>107.7</ele>
        <time>2021-12-01T11:02:38Z</time>
      </trkpt>
      <trkpt lat="43.61678" lon="3.74582">
        <ele>108.5</ele>
        <time>2021-12-01T11:02:48Z</time>
      </trkpt>
      <trkpt lat="43.61692" lon="3.74595">
        <ele>110.3</ele>
        <time>2021-12-01T11:02:58Z</time>
      </trkpt>
      <trkpt lat="43.61707" lon="3.74606">
        <ele>111.7</ele>
        <time>2021-12-01T11:03:08Z</time>
      </trkpt>
      <trkpt lat="43.61725" lon="3.74624">
        <ele>112.1</ele>
        <time>2021-12-01T11:03:18Z</time>
      </trkpt>
      <trkpt lat="43.61747" lon="3.7464">
        <ele>112.4</ele>
        <time>2021-12-01T11:03:28Z</time>
      </trkpt>
      <trkpt lat="43.61772" lon="3.7464">
        <ele>112.8</ele>
        <time>2021-12-01T11:03:38Z</time>
      </trkpt>
      <trkpt lat="43.61792" lon="3.74632">
        <ele>113.6</ele>
        <time>2021-12-01T11:03:48Z</time>
      </trkpt>
      <trkpt lat="43.61816" lon="3.74624">
        <ele>113.9</ele>
        <time>2021-12-01T11:03:58Z</time>
      </trkpt>
      <trkpt lat="43.61816" lon="3.74611">
        <ele>115.6</ele>
        <time>2021-12-01T11:04:18Z</time>
      </trkpt>
      <trkpt lat="43.61805" lon="3.74601">
        <ele>117.1</ele>
        <time>2021-12-01T11:04:38Z</time>
      </trkpt>
      <trkpt lat="43.618" lon="3.74589">
        <ele>119.1</ele>
        <time>2021-12-01T11:04:48Z</time>
      </trkpt>
      <trkpt lat="43.61795" lon="3.74577">
        <ele>121.3</ele>
        <time>2021-12-01T11:04:58Z</time>
      </trkpt>
      <trkpt lat="43.61792" lon="3.74562">
        <ele>123.6</ele>
        <time>2021-12-01T11:05:08Z</time>
      </trkpt>
      <trkpt lat="43.61787" lon="3.74555">
        <ele>125.4</ele>
        <time>2021-12-01T11:05:18Z</time>
      </trkpt>
      <trkpt lat="43.61783" lon="3.74543">
        <ele>127.8</ele>
        <time>2021-12-01T11:05:28Z</time>
      </trkpt>
      <trkpt lat="43.61775" lon="3.74535">
        <ele>130.2</ele>
        <time>2021-12-01T11:05:38Z</time>
      </trkpt>
      <trkpt lat="43.61766" lon="3.74535">
        <ele>131.1</ele>
        <time>2021-12-01T11:06:38Z</time>
      </trkpt>
      <trkpt lat="43.61751" lon="3.74531">
        <ele>133.3</ele>
        <time>2021-12-01T11:06:58Z</time>
      </trkpt>
      <trkpt lat="43.61739" lon="3.74518">
        <ele>134.6</ele>
        <time>2021-12-01T11:07:08Z</time>
      </trkpt>
      <trkpt lat="43.61739" lon="3.74501">
        <ele>137.1</ele>
        <time>2021-12-01T11:07:18Z</time>
      </trkpt>
      <trkpt lat="43.61739" lon="3.74485">
        <ele>138.6</ele>
        <time>2021-12-01T11:07:28Z</time>
      </trkpt>
      <trkpt lat="43.6174" lon="3.74467">
        <ele>140.2</ele>
        <time>2021-12-01T11:07:38Z</time>
      </trkpt>
      <trkpt lat="43.6174" lon="3.74449">
        <ele>141.1</ele>
        <time>2021-12-01T11:07:48Z</time>
      </trkpt>
      <trkpt lat="43.61741" lon="3.74429">
        <ele>141.9</ele>
        <time>2021-12-01T11:07:58Z</time>
      </trkpt>
      <trkpt lat="43.61742" lon="3.74408">
        <ele>142.7</ele>
        <time>2021-12-01T11:08:08Z</time>
      </trkpt>
      <trkpt lat="43.61744" lon="3.74385">
        <ele>143.8</ele>
        <time>2021-12-01T11:08:18Z</time>
      </trkpt>
      <trkpt lat="43.61747" lon="3.74365">
        <ele>145.5</ele>
        <time>2021-12-01T11:08:28Z</time>
      </trkpt>
      <trkpt lat="43.61749" lon="3.74345">
        <ele>147.1</ele>
        <time>2021-12-01T11:08:38Z</time>
      </trkpt>
      <trkpt lat="43.61752" lon="3.74326">
        <ele>148.2</ele>
        <time>2021-12-01T11:08:48Z</time>
      </trkpt>
      <trkpt lat="43.6177" lon="3.74311">
        <ele>148.7</ele>
        <time>2021-12-01T11:08:58Z</time>
      </trkpt>
      <trkpt lat="43.61783" lon="3.74293">
        <ele>149.9</ele>
        <time>2021-12-01T11:09:08Z</time>
      </trkpt>
      <trkpt lat="43.61794" lon="3.74274">
        <ele>151.6</ele>
        <time>2021-12-01T11:09:18Z</time>
      </trkpt>
      <trkpt lat="43.61806" lon="3.74251">
        <ele>152.1</ele>
        <time>2021-12-01T11:09:28Z</time>
      </trkpt>
      <trkpt lat="43.61822" lon="3.74219">
        <ele>152</ele>
        <time>2021-12-01T11:09:38Z</time>
      </trkpt>
      <trkpt lat="43.61838" lon="3.7418">
        <ele>151</ele>
        <time>2021-12-01T11:09:48Z</time>
      </trkpt>
      <trkpt lat="43.61863" lon="3.74156">
        <ele>150.5</ele>
        <time>2021-12-01T11:09:58Z</time>
      </trkpt>
      <trkpt lat="43.61883" lon="3.74128">
        <ele>149.1</ele>
        <time>2021-12-01T11:10:08Z</time>
      </trkpt>
      <trkpt lat="43.61878" lon="3.74101">
        <ele>149.5</ele>
        <time>2021-12-01T11:10:18Z</time>
      </trkpt>
      <trkpt lat="43.61857" lon="3.74092">
        <ele>149.9</ele>
        <time>2021-12-01T11:10:28Z</time>
      </trkpt>
      <trkpt lat="43.61829" lon="3.74055">
        <ele>149.2</ele>
        <time>2021-12-01T11:10:48Z</time>
      </trkpt>
      <trkpt lat="43.61804" lon="3.74019">
        <ele>149.5</ele>
        <time>2021-12-01T11:10:58Z</time>
      </trkpt>
      <trkpt lat="43.61774" lon="3.73986">
        <ele>148.8</ele>
        <time>2021-12-01T11:11:08Z</time>
      </trkpt>
      <trkpt lat="43.61752" lon="3.73941">
        <ele>148.3</ele>
        <time>2021-12-01T11:11:18Z</time>
      </trkpt>
      <trkpt lat="43.61758" lon="3.73885">
        <ele>148.6</ele>
        <time>2021-12-01T11:11:28Z</time>
      </trkpt>
      <trkpt lat="43.61751" lon="3.73833">
        <ele>147.3</ele>
        <time>2021-12-01T11:11:38Z</time>
      </trkpt>
      <trkpt lat="43.6173" lon="3.7379">
        <ele>147.1</ele>
        <time>2021-12-01T11:11:48Z</time>
      </trkpt>
      <trkpt lat="43.61729" lon="3.73735">
        <ele>146.8</ele>
        <time>2021-12-01T11:11:58Z</time>
      </trkpt>
      <trkpt lat="43.61732" lon="3.73674">
        <ele>144.3</ele>
        <time>2021-12-01T11:12:08Z</time>
      </trkpt>
      <trkpt lat="43.61692" lon="3.7364">
        <ele>141.6</ele>
        <time>2021-12-01T11:12:18Z</time>
      </trkpt>
      <trkpt lat="43.61653" lon="3.73628">
        <ele>142.8</ele>
        <time>2021-12-01T11:12:28Z</time>
      </trkpt>
      <trkpt lat="43.61621" lon="3.73616">
        <ele>144.4</ele>
        <time>2021-12-01T11:12:38Z</time>
      </trkpt>
      <trkpt lat="43.61594" lon="3.73604">
        <ele>143.7</ele>
        <time>2021-12-01T11:12:48Z</time>
      </trkpt>
      <trkpt lat="43.61585" lon="3.7362">
        <ele>139.6</ele>
        <time>2021-12-01T11:12:58Z</time>
      </trkpt>
      <trkpt lat="43.6157" lon="3.73636">
        <ele>134</ele>
        <time>2021-12-01T11:13:08Z</time>
      </trkpt>
      <trkpt lat="43.61568" lon="3.7367">
        <ele>127.8</ele>
        <time>2021-12-01T11:13:18Z</time>
      </trkpt>
      <trkpt lat="43.61565" lon="3.73708">
        <ele>122.9</ele>
        <time>2021-12-01T11:13:28Z</time>
      </trkpt>
      <trkpt lat="43.61553" lon="3.73768">
        <ele>121.4</ele>
        <time>2021-12-01T11:13:38Z</time>
      </trkpt>
      <trkpt lat="43.61536" lon="3.73826">
        <ele>117.3</ele>
        <time>2021-12-01T11:13:48Z</time>
      </trkpt>
      <trkpt lat="43.61508" lon="3.7383">
        <ele>115.7</ele>
        <time>2021-12-01T11:13:58Z</time>
      </trkpt>
      <trkpt lat="43.61488" lon="3.73813">
        <ele>117.1</ele>
        <time>2021-12-01T11:14:08Z</time>
      </trkpt>
      <trkpt lat="43.61477" lon="3.73798">
        <ele>119</ele>
        <time>2021-12-01T11:14:18Z</time>
      </trkpt>
      <trkpt lat="43.61473" lon="3.73776">
        <ele>120.9</ele>
        <time>2021-12-01T11:14:28Z</time>
      </trkpt>
      <trkpt lat="43.61472" lon="3.73754">
        <ele>121</ele>
        <time>2021-12-01T11:14:38Z</time>
      </trkpt>
      <trkpt lat="43.61469" lon="3.7373">
        <ele>122</ele>
        <time>2021-12-01T11:14:48Z</time>
      </trkpt>
      <trkpt lat="43.61464" lon="3.737">
        <ele>123.1</ele>
        <time>2021-12-01T11:14:58Z</time>
      </trkpt>
      <trkpt lat="43.61455" lon="3.73679">
        <ele>124.3</ele>
        <time>2021-12-01T11:15:08Z</time>
      </trkpt>
      <trkpt lat="43.61447" lon="3.73667">
        <ele>125.5</ele>
        <time>2021-12-01T11:15:18Z</time>
      </trkpt>
      <trkpt lat="43.61437" lon="3.73668">
        <ele>127.3</ele>
        <time>2021-12-01T11:15:28Z</time>
      </trkpt>
      <trkpt lat="43.61425" lon="3.73675">
        <ele>128.9</ele>
        <time>2021-12-01T11:15:38Z</time>
      </trkpt>
      <trkpt lat="43.61414" lon="3.73681">
        <ele>130</ele>
        <time>2021-12-01T11:15:48Z</time>
      </trkpt>
      <trkpt lat="43.61403" lon="3.73687">
        <ele>131.6</ele>
        <time>2021-12-01T11:15:58Z</time>
      </trkpt>
      <trkpt lat="43.61391" lon="3.73693">
        <ele>133.7</ele>
        <time>2021-12-01T11:16:08Z</time>
      </trkpt>
      <trkpt lat="43.6138" lon="3.73699">
        <ele>134.6</ele>
        <time>2021-12-01T11:16:18Z</time>
      </trkpt>
      <trkpt lat="43.61369" lon="3.73704">
        <ele>135.5</ele>
        <time>2021-12-01T11:16:28Z</time>
      </trkpt>
      <trkpt lat="43.61355" lon="3.73706">
        <ele>136.8</ele>
        <time>2021-12-01T11:16:38Z</time>
      </trkpt>
      <trkpt lat="43.6134" lon="3.73707">
        <ele>137.8</ele>
        <time>2021-12-01T11:16:48Z</time>
      </trkpt>
      <trkpt lat="43.61326" lon="3.73709">
        <ele>138.6</ele>
        <time>2021-12-01T11:16:58Z</time>
      </trkpt>
      <trkpt lat="43.61312" lon="3.73712">
        <ele>139.5</ele>
        <time>2021-12-01T11:17:08Z</time>
      </trkpt>
      <trkpt lat="43.61296" lon="3.73717">
        <ele>140.7</ele>
        <time>2021-12-01T11:17:18Z</time>
      </trkpt>
      <trkpt lat="43.61282" lon="3.73724">
        <ele>142.1</ele>
        <time>2021-12-01T11:17:28Z</time>
      </trkpt>
      <trkpt lat="43.61268" lon="3.7372">
        <ele>143.6</ele>
        <time>2021-12-01T11:17:38Z</time>
      </trkpt>
      <trkpt lat="43.61253" lon="3.73715">
        <ele>145.1</ele>
        <time>2021-12-01T11:17:48Z</time>
      </trkpt>
      <trkpt lat="43.61239" lon="3.7371">
        <ele>146.6</ele>
        <time>2021-12-01T11:17:58Z</time>
      </trkpt>
      <trkpt lat="43.61224" lon="3.73705">
        <ele>148</ele>
        <time>2021-12-01T11:18:08Z</time>
      </trkpt>
      <trkpt lat="43.61211" lon="3.73699">
        <ele>150.1</ele>
        <time>2021-12-01T11:18:18Z</time>
      </trkpt>
      <trkpt lat="43.61198" lon="3.73694">
        <ele>151.8</ele>
        <time>2021-12-01T11:18:28Z</time>
      </trkpt>
      <trkpt lat="43.61186" lon="3.73689">
        <ele>152.8</ele>
        <time>2021-12-01T11:18:38Z</time>
      </trkpt>
      <trkpt lat="43.61174" lon="3.73677">
        <ele>154.1</ele>
        <time>2021-12-01T11:18:48Z</time>
      </trkpt>
      <trkpt lat="43.61167" lon="3.73661">
        <ele>154.8</ele>
        <time>2021-12-01T11:18:58Z</time>
      </trkpt>
      <trkpt lat="43.61157" lon="3.73647">
        <ele>155</ele>
        <time>2021-12-01T11:19:08Z</time>
      </trkpt>
      <trkpt lat="43.6114" lon="3.73636">
        <ele>155.8</ele>
        <time>2021-12-01T11:19:18Z</time>
      </trkpt>
      <trkpt lat="43.61121" lon="3.73616">
        <ele>155.7</ele>
        <time>2021-12-01T11:19:28Z</time>
      </trkpt>
      <trkpt lat="43.61124" lon="3.73588">
        <ele>155.1</ele>
        <time>2021-12-01T11:19:38Z</time>
      </trkpt>
      <trkpt lat="43.61148" lon="3.73547">
        <ele>153.3</ele>
        <time>2021-12-01T11:19:48Z</time>
      </trkpt>
      <trkpt lat="43.61141" lon="3.73493">
        <ele>153</ele>
        <time>2021-12-01T11:19:58Z</time>
      </trkpt>
      <trkpt lat="43.61138" lon="3.73462">
        <ele>154.9</ele>
        <time>2021-12-01T11:20:08Z</time>
      </trkpt>
      <trkpt lat="43.61145" lon="3.73439">
        <ele>155.2</ele>
        <time>2021-12-01T11:20:18Z</time>
      </trkpt>
      <trkpt lat="43.61131" lon="3.73426">
        <ele>160.6</ele>
        <time>2021-12-01T11:21:28Z</time>
      </trkpt>
      <trkpt lat="43.61117" lon="3.73429">
        <ele>163.7</ele>
        <time>2021-12-01T11:21:48Z</time>
      </trkpt>
      <trkpt lat="43.61105" lon="3.73436">
        <ele>165.4</ele>
        <time>2021-12-01T11:21:58Z</time>
      </trkpt>
      <trkpt lat="43.61094" lon="3.73437">
        <ele>166.7</ele>
        <time>2021-12-01T11:22:08Z</time>
      </trkpt>
      <trkpt lat="43.61083" lon="3.73431">
        <ele>169</ele>
        <time>2021-12-01T11:22:18Z</time>
      </trkpt>
      <trkpt lat="43.61076" lon="3.7342">
        <ele>170.8</ele>
        <time>2021-12-01T11:22:28Z</time>
      </trkpt>
      <trkpt lat="43.61069" lon="3.73408">
        <ele>172.6</ele>
        <time>2021-12-01T11:22:38Z</time>
      </trkpt>
      <trkpt lat="43.6106" lon="3.73399">
        <ele>174.3</ele>
        <time>2021-12-01T11:22:48Z</time>
      </trkpt>
      <trkpt lat="43.6105" lon="3.73391">
        <ele>175.9</ele>
        <time>2021-12-01T11:22:58Z</time>
      </trkpt>
      <trkpt lat="43.61043" lon="3.7338">
        <ele>177.7</ele>
        <time>2021-12-01T11:23:08Z</time>
      </trkpt>
      <trkpt lat="43.61034" lon="3.73372">
        <ele>179.2</ele>
        <time>2021-12-01T11:23:18Z</time>
      </trkpt>
      <trkpt lat="43.61026" lon="3.7336">
        <ele>181</ele>
        <time>2021-12-01T11:23:28Z</time>
      </trkpt>
      <trkpt lat="43.61018" lon="3.73347">
        <ele>181.8</ele>
        <time>2021-12-01T11:23:38Z</time>
      </trkpt>
      <trkpt lat="43.61013" lon="3.73328">
        <ele>183.2</ele>
        <time>2021-12-01T11:23:48Z</time>
      </trkpt>
      <trkpt lat="43.6101" lon="3.73311">
        <ele>184</ele>
        <time>2021-12-01T11:23:58Z</time>
      </trkpt>
      <trkpt lat="43.61004" lon="3.73287">
        <ele>184.1</ele>
        <time>2021-12-01T11:24:08Z</time>
      </trkpt>
      <trkpt lat="43.61007" lon="3.73256">
        <ele>185</ele>
        <time>2021-12-01T11:24:18Z</time>
      </trkpt>
      <trkpt lat="43.61004" lon="3.73221">
        <ele>185.2</ele>
        <time>2021-12-01T11:24:28Z</time>
      </trkpt>
      <trkpt lat="43.60999" lon="3.73188">
        <ele>184.9</ele>
        <time>2021-12-01T11:24:38Z</time>
      </trkpt>
      <trkpt lat="43.60987" lon="3.73155">
        <ele>183.4</ele>
        <time>2021-12-01T11:24:48Z</time>
      </trkpt>
      <trkpt lat="43.60975" lon="3.73133">
        <ele>184.3</ele>
        <time>2021-12-01T11:24:58Z</time>
      </trkpt>
      <trkpt lat="43.60959" lon="3.73105">
        <ele>184.6</ele>
        <time>2021-12-01T11:25:08Z</time>
      </trkpt>
      <trkpt lat="43.60944" lon="3.73071">
        <ele>187.2</ele>
        <time>2021-12-01T11:25:18Z</time>
      </trkpt>
      <trkpt lat="43.60941" lon="3.73035">
        <ele>188</ele>
        <time>2021-12-01T11:25:28Z</time>
      </trkpt>
      <trkpt lat="43.60943" lon="3.72997">
        <ele>188.4</ele>
        <time>2021-12-01T11:25:38Z</time>
      </trkpt>
      <trkpt lat="43.60948" lon="3.72969">
        <ele>186.9</ele>
        <time>2021-12-01T11:25:48Z</time>
      </trkpt>
      <trkpt lat="43.60938" lon="3.72953">
        <ele>182.8</ele>
        <time>2021-12-01T11:25:58Z</time>
      </trkpt>
      <trkpt lat="43.60925" lon="3.72931">
        <ele>176.7</ele>
        <time>2021-12-01T11:26:08Z</time>
      </trkpt>
      <trkpt lat="43.60909" lon="3.72907">
        <ele>170.6</ele>
        <time>2021-12-01T11:26:18Z</time>
      </trkpt>
      <trkpt lat="43.60896" lon="3.72879">
        <ele>165</ele>
        <time>2021-12-01T11:26:28Z</time>
      </trkpt>
      <trkpt lat="43.60887" lon="3.72849">
        <ele>160</ele>
        <time>2021-12-01T11:26:38Z</time>
      </trkpt>
      <trkpt lat="43.60862" lon="3.72812">
        <ele>156.2</ele>
        <time>2021-12-01T11:26:48Z</time>
      </trkpt>
      <trkpt lat="43.60838" lon="3.72805">
        <ele>155.2</ele>
        <time>2021-12-01T11:26:58Z</time>
      </trkpt>
      <trkpt lat="43.6083" lon="3.7285">
        <ele>155.6</ele>
        <time>2021-12-01T11:27:18Z</time>
      </trkpt>
      <trkpt lat="43.60829" lon="3.72903">
        <ele>156.3</ele>
        <time>2021-12-01T11:27:28Z</time>
      </trkpt>
      <trkpt lat="43.60831" lon="3.72945">
        <ele>157.2</ele>
        <time>2021-12-01T11:27:38Z</time>
      </trkpt>
      <trkpt lat="43.60831" lon="3.72994">
        <ele>155.6</ele>
        <time>2021-12-01T11:27:48Z</time>
      </trkpt>
      <trkpt lat="43.60838" lon="3.73045">
        <ele>155.9</ele>
        <time>2021-12-01T11:27:58Z</time>
      </trkpt>
      <trkpt lat="43.60841" lon="3.73095">
        <ele>153.7</ele>
        <time>2021-12-01T11:28:08Z</time>
      </trkpt>
      <trkpt lat="43.60859" lon="3.73162">
        <ele>152</ele>
        <time>2021-12-01T11:28:18Z</time>
      </trkpt>
      <trkpt lat="43.60873" lon="3.7321">
        <ele>151.7</ele>
        <time>2021-12-01T11:28:28Z</time>
      </trkpt>
      <trkpt lat="43.60884" lon="3.73271">
        <ele>150.8</ele>
        <time>2021-12-01T11:28:38Z</time>
      </trkpt>
      <trkpt lat="43.60879" lon="3.73293">
        <ele>149.4</ele>
        <time>2021-12-01T11:28:48Z</time>
      </trkpt>
      <trkpt lat="43.60876" lon="3.73323">
        <ele>148.7</ele>
        <time>2021-12-01T11:28:58Z</time>
      </trkpt>
      <trkpt lat="43.6088" lon="3.73386">
        <ele>148.6</ele>
        <time>2021-12-01T11:29:08Z</time>
      </trkpt>
      <trkpt lat="43.60884" lon="3.73434">
        <ele>147.6</ele>
        <time>2021-12-01T11:29:18Z</time>
      </trkpt>
      <trkpt lat="43.60882" lon="3.73457">
        <ele>146.8</ele>
      </trkpt>
      <trkpt lat="43.60882" lon="3.73484">
        <ele>147.1</ele>
        <time>2021-12-01T11:29:28Z</time>
      </trkpt>
      <trkpt lat="43.60791" lon="3.73518">
        <ele>143.3</ele>
        <time>2021-12-01T11:29:38Z</time>
      </trkpt>
      <trkpt lat="43.60784" lon="3.73549">
        <ele>141.9</ele>
        <time>2021-12-01T11:29:48Z</time>
      </trkpt>
      <trkpt lat="43.60747" lon="3.73557">
        <ele>135.7</ele>
      </trkpt>
      <trkpt lat="43.60714" lon="3.73577">
        <ele>132.1</ele>
        <time>2021-12-01T11:29:58Z</time>
      </trkpt>
      <trkpt lat="43.60681" lon="3.73622">
        <ele>127.1</ele>
        <time>2021-12-01T11:30:08Z</time>
      </trkpt>
      <trkpt lat="43.60675" lon="3.73652">
        <ele>125.9</ele>
        <time>2021-12-01T11:30:18Z</time>
      </trkpt>
      <trkpt lat="43.60696" lon="3.73666">
        <ele>127.2</ele>
        <time>2021-12-01T11:30:28Z</time>
      </trkpt>
      <trkpt lat="43.60716" lon="3.73683">
        <ele>128.7</ele>
        <time>2021-12-01T11:30:38Z</time>
      </trkpt>
      <trkpt lat="43.60735" lon="3.737">
        <ele>129.9</ele>
        <time>2021-12-01T11:30:48Z</time>
      </trkpt>
      <trkpt lat="43.60756" lon="3.73717">
        <ele>131.6</ele>
        <time>2021-12-01T11:30:58Z</time>
      </trkpt>
      <trkpt lat="43.60774" lon="3.73734">
        <ele>134</ele>
        <time>2021-12-01T11:31:08Z</time>
      </trkpt>
      <trkpt lat="43.60792" lon="3.73751">
        <ele>136.1</ele>
        <time>2021-12-01T11:31:18Z</time>
      </trkpt>
      <trkpt lat="43.6081" lon="3.73766">
        <ele>138.1</ele>
        <time>2021-12-01T11:31:28Z</time>
      </trkpt>
      <trkpt lat="43.60825" lon="3.73779">
        <ele>139.4</ele>
        <time>2021-12-01T11:31:38Z</time>
      </trkpt>
      <trkpt lat="43.60841" lon="3.73793">
        <ele>140.9</ele>
        <time>2021-12-01T11:31:48Z</time>
      </trkpt>
      <trkpt lat="43.60858" lon="3.73808">
        <ele>141.9</ele>
        <time>2021-12-01T11:31:58Z</time>
      </trkpt>
      <trkpt lat="43.60874" lon="3.73823">
        <ele>143.4</ele>
        <time>2021-12-01T11:32:08Z</time>
      </trkpt>
      <trkpt lat="43.60874" lon="3.73865">
        <ele>142.2</ele>
        <time>2021-12-01T11:32:18Z</time>
      </trkpt>
      <trkpt lat="43.60872" lon="3.7396">
        <ele>136.1</ele>
        <time>2021-12-01T11:32:28Z</time>
      </trkpt>
      <trkpt lat="43.60864" lon="3.74058">
        <ele>129.7</ele>
        <time>2021-12-01T11:32:38Z</time>
      </trkpt>
      <trkpt lat="43.60836" lon="3.74075">
        <ele>129.1</ele>
        <time>2021-12-01T11:32:48Z</time>
      </trkpt>
      <trkpt lat="43.60792" lon="3.74113">
        <ele>127.4</ele>
        <time>2021-12-01T11:32:58Z</time>
      </trkpt>
      <trkpt lat="43.60751" lon="3.74151">
        <ele>127.5</ele>
        <time>2021-12-01T11:33:08Z</time>
      </trkpt>
      <trkpt lat="43.6072" lon="3.74204">
        <ele>125.6</ele>
        <time>2021-12-01T11:33:18Z</time>
      </trkpt>
      <trkpt lat="43.60696" lon="3.74287">
        <ele>122.6</ele>
        <time>2021-12-01T11:33:28Z</time>
      </trkpt>
      <trkpt lat="43.60675" lon="3.74392">
        <ele>118</ele>
        <time>2021-12-01T11:33:38Z</time>
      </trkpt>
      <trkpt lat="43.60651" lon="3.74483">
        <ele>117.8</ele>
        <time>2021-12-01T11:33:48Z</time>
      </trkpt>
      <trkpt lat="43.60634" lon="3.74562">
        <ele>114.9</ele>
        <time>2021-12-01T11:33:58Z</time>
      </trkpt>
      <trkpt lat="43.60609" lon="3.74632">
        <ele>114.9</ele>
        <time>2021-12-01T11:34:08Z</time>
      </trkpt>
      <trkpt lat="43.60594" lon="3.74692">
        <ele>113.4</ele>
        <time>2021-12-01T11:34:18Z</time>
      </trkpt>
      <trkpt lat="43.60594" lon="3.74752">
        <ele>112.3</ele>
        <time>2021-12-01T11:34:28Z</time>
      </trkpt>
      <trkpt lat="43.60584" lon="3.74821">
        <ele>110.4</ele>
        <time>2021-12-01T11:34:38Z</time>
      </trkpt>
      <trkpt lat="43.60561" lon="3.74898">
        <ele>106.3</ele>
        <time>2021-12-01T11:34:48Z</time>
      </trkpt>
      <trkpt lat="43.60527" lon="3.74979">
        <ele>103</ele>
        <time>2021-12-01T11:34:58Z</time>
      </trkpt>
      <trkpt lat="43.6048" lon="3.75023">
        <ele>101.5</ele>
        <time>2021-12-01T11:35:08Z</time>
      </trkpt>
      <trkpt lat="43.60453" lon="3.75044">
        <ele>101.1</ele>
        <time>2021-12-01T11:35:18Z</time>
      </trkpt>
      <trkpt lat="43.60424" lon="3.75094">
        <ele>101</ele>
        <time>2021-12-01T11:35:28Z</time>
      </trkpt>
      <trkpt lat="43.60391" lon="3.75139">
        <ele>101.9</ele>
        <time>2021-12-01T11:35:38Z</time>
      </trkpt>
      <trkpt lat="43.60358" lon="3.75186">
        <ele>101.9</ele>
        <time>2021-12-01T11:35:48Z</time>
      </trkpt>
      <trkpt lat="43.60325" lon="3.75232">
        <ele>101.6</ele>
        <time>2021-12-01T11:35:58Z</time>
      </trkpt>
      <trkpt lat="43.60292" lon="3.75279">
        <ele>101.5</ele>
        <time>2021-12-01T11:36:08Z</time>
      </trkpt>
      <trkpt lat="43.60275" lon="3.75325">
        <ele>102.7</ele>
        <time>2021-12-01T11:36:18Z</time>
      </trkpt>
      <trkpt lat="43.60276" lon="3.75388">
        <ele>101.2</ele>
        <time>2021-12-01T11:36:28Z</time>
      </trkpt>
      <trkpt lat="43.60309" lon="3.75451">
        <ele>100.7</ele>
        <time>2021-12-01T11:36:38Z</time>
      </trkpt>
      <trkpt lat="43.6031" lon="3.75535">
        <ele>99.5</ele>
        <time>2021-12-01T11:36:48Z</time>
      </trkpt>
      <trkpt lat="43.60315" lon="3.75622">
        <ele>97.6</ele>
        <time>2021-12-01T11:36:58Z</time>
      </trkpt>
      <trkpt lat="43.60285" lon="3.75707">
        <ele>97</ele>
        <time>2021-12-01T11:37:08Z</time>
      </trkpt>
      <trkpt lat="43.60256" lon="3.75779">
        <ele>97.8</ele>
        <time>2021-12-01T11:37:18Z</time>
      </trkpt>
      <trkpt lat="43.60226" lon="3.75834">
        <ele>97.3</ele>
        <time>2021-12-01T11:37:28Z</time>
      </trkpt>
      <trkpt lat="43.60179" lon="3.75872">
        <ele>96.3</ele>
        <time>2021-12-01T11:37:38Z</time>
      </trkpt>
      <trkpt lat="43.60125" lon="3.75904">
        <ele>93.5</ele>
        <time>2021-12-01T11:37:48Z</time>
      </trkpt>
      <trkpt lat="43.60088" lon="3.7597">
        <ele>91.7</ele>
        <time>2021-12-01T11:37:58Z</time>
      </trkpt>
      <trkpt lat="43.60065" lon="3.76046">
        <ele>92.1</ele>
        <time>2021-12-01T11:38:08Z</time>
      </trkpt>
      <trkpt lat="43.60077" lon="3.76118">
        <ele>90.7</ele>
        <time>2021-12-01T11:38:18Z</time>
      </trkpt>
      <trkpt lat="43.60112" lon="3.76173">
        <ele>89.8</ele>
        <time>2021-12-01T11:38:28Z</time>
      </trkpt>
      <trkpt lat="43.60142" lon="3.7623">
        <ele>88.6</ele>
        <time>2021-12-01T11:38:38Z</time>
      </trkpt>
      <trkpt lat="43.60149" lon="3.763">
        <ele>86.7</ele>
        <time>2021-12-01T11:38:48Z</time>
      </trkpt>
      <trkpt lat="43.60131" lon="3.76354">
        <ele>84.8</ele>
        <time>2021-12-01T11:38:58Z</time>
      </trkpt>
      <trkpt lat="43.60103" lon="3.7641">
        <ele>82.5</ele>
        <time>2021-12-01T11:39:08Z</time>
      </trkpt>
      <trkpt lat="43.60053" lon="3.76468">
        <ele>80.9</ele>
        <time>2021-12-01T11:39:18Z</time>
      </trkpt>
      <trkpt lat="43.60003" lon="3.76519">
        <ele>79.2</ele>
        <time>2021-12-01T11:39:28Z</time>
      </trkpt>
      <trkpt lat="43.59974" lon="3.76596">
        <ele>75.7</ele>
        <time>2021-12-01T11:39:38Z</time>
      </trkpt>
      <trkpt lat="43.59963" lon="3.76685">
        <ele>75.4</ele>
        <time>2021-12-01T11:39:48Z</time>
      </trkpt>
      <trkpt lat="43.59945" lon="3.76772">
        <ele>73.2</ele>
        <time>2021-12-01T11:39:58Z</time>
      </trkpt>
      <trkpt lat="43.59928" lon="3.76856">
        <ele>72.6</ele>
        <time>2021-12-01T11:40:08Z</time>
      </trkpt>
      <trkpt lat="43.59911" lon="3.7693">
        <ele>71.2</ele>
        <time>2021-12-01T11:40:18Z</time>
      </trkpt>
      <trkpt lat="43.59867" lon="3.76998">
        <ele>70.1</ele>
        <time>2021-12-01T11:40:28Z</time>
      </trkpt>
      <trkpt lat="43.59821" lon="3.7707">
        <ele>66.9</ele>
        <time>2021-12-01T11:40:38Z</time>
      </trkpt>
      <trkpt lat="43.59772" lon="3.77127">
        <ele>65</ele>
        <time>2021-12-01T11:40:48Z</time>
      </trkpt>
      <trkpt lat="43.59731" lon="3.77168">
        <ele>63</ele>
        <time>2021-12-01T11:40:58Z</time>
      </trkpt>
      <trkpt lat="43.59694" lon="3.77207">
        <ele>61.5</ele>
        <time>2021-12-01T11:41:08Z</time>
      </trkpt>
      <trkpt lat="43.59649" lon="3.77244">
        <ele>60.7</ele>
        <time>2021-12-01T11:41:18Z</time>
      </trkpt>
      <trkpt lat="43.59604" lon="3.77279">
        <ele>60.2</ele>
        <time>2021-12-01T11:41:28Z</time>
      </trkpt>
      <trkpt lat="43.59561" lon="3.77321">
        <ele>59.4</ele>
        <time>2021-12-01T11:41:38Z</time>
      </trkpt>
      <trkpt lat="43.59517" lon="3.77352">
        <ele>59.3</ele>
        <time>2021-12-01T11:41:48Z</time>
      </trkpt>
      <trkpt lat="43.59481" lon="3.77397">
        <ele>58.7</ele>
        <time>2021-12-01T11:41:58Z</time>
      </trkpt>
      <trkpt lat="43.59466" lon="3.77467">
        <ele>56.2</ele>
        <time>2021-12-01T11:42:08Z</time>
      </trkpt>
      <trkpt lat="43.59435" lon="3.77533">
        <ele>55</ele>
        <time>2021-12-01T11:42:18Z</time>
      </trkpt>
      <trkpt lat="43.594" lon="3.77573">
        <ele>54.4</ele>
        <time>2021-12-01T11:42:28Z</time>
      </trkpt>
      <trkpt lat="43.59378" lon="3.77543">
        <ele>54.9</ele>
        <time>2021-12-01T11:42:38Z</time>
      </trkpt>
      <trkpt lat="43.59378" lon="3.77578">
        <ele>54.1</ele>
        <time>2021-12-01T11:42:48Z</time>
      </trkpt>
      <trkpt lat="43.59403" lon="3.7764">
        <ele>54</ele>
        <time>2021-12-01T11:42:58Z</time>
      </trkpt>
      <trkpt lat="43.59429" lon="3.77702">
        <ele>52.8</ele>
        <time>2021-12-01T11:43:08Z</time>
      </trkpt>
      <trkpt lat="43.59394" lon="3.77749">
        <ele>52</ele>
        <time>2021-12-01T11:43:18Z</time>
      </trkpt>
      <trkpt lat="43.59358" lon="3.77803">
        <ele>52</ele>
        <time>2021-12-01T11:43:28Z</time>
      </trkpt>
      <trkpt lat="43.59341" lon="3.77877">
        <ele>51</ele>
        <time>2021-12-01T11:43:38Z</time>
      </trkpt>
      <trkpt lat="43.59333" lon="3.77954">
        <ele>50.7</ele>
        <time>2021-12-01T11:43:48Z</time>
      </trkpt>
      <trkpt lat="43.59333" lon="3.78035">
        <ele>50</ele>
        <time>2021-12-01T11:43:58Z</time>
      </trkpt>
      <trkpt lat="43.59333" lon="3.7812">
        <ele>49</ele>
        <time>2021-12-01T11:44:08Z</time>
      </trkpt>
      <trkpt lat="43.59307" lon="3.78174">
        <ele>47.7</ele>
        <time>2021-12-01T11:44:18Z</time>
      </trkpt>
      <trkpt lat="43.59267" lon="3.7815">
        <ele>47.8</ele>
        <time>2021-12-01T11:44:28Z</time>
      </trkpt>
      <trkpt lat="43.5923" lon="3.78137">
        <ele>48.7</ele>
        <time>2021-12-01T11:44:38Z</time>
      </trkpt>
      <trkpt lat="43.59195" lon="3.78135">
        <ele>49.1</ele>
        <time>2021-12-01T11:44:48Z</time>
      </trkpt>
      <trkpt lat="43.59166" lon="3.7814">
        <ele>50</ele>
        <time>2021-12-01T11:44:58Z</time>
      </trkpt>
      <trkpt lat="43.59138" lon="3.78145">
        <ele>51.1</ele>
        <time>2021-12-01T11:45:08Z</time>
      </trkpt>
      <trkpt lat="43.59112" lon="3.78153">
        <ele>52.4</ele>
        <time>2021-12-01T11:45:18Z</time>
      </trkpt>
      <trkpt lat="43.59093" lon="3.78159">
        <ele>54.3</ele>
        <time>2021-12-01T11:45:28Z</time>
      </trkpt>
      <trkpt lat="43.59079" lon="3.7817">
        <ele>56.5</ele>
        <time>2021-12-01T11:45:38Z</time>
      </trkpt>
      <trkpt lat="43.59066" lon="3.78179">
        <ele>57.9</ele>
        <time>2021-12-01T11:45:48Z</time>
      </trkpt>
      <trkpt lat="43.59055" lon="3.7819">
        <ele>59.1</ele>
        <time>2021-12-01T11:45:58Z</time>
      </trkpt>
      <trkpt lat="43.59044" lon="3.78199">
        <ele>61</ele>
        <time>2021-12-01T11:46:08Z</time>
      </trkpt>
      <trkpt lat="43.59035" lon="3.78209">
        <ele>63</ele>
        <time>2021-12-01T11:46:18Z</time>
      </trkpt>
      <trkpt lat="43.59027" lon="3.78218">
        <ele>64.8</ele>
        <time>2021-12-01T11:46:28Z</time>
      </trkpt>
      <trkpt lat="43.59024" lon="3.78227">
        <ele>66</ele>
        <time>2021-12-01T11:46:38Z</time>
      </trkpt>
      <trkpt lat="43.59048" lon="3.78247">
        <ele>64.8</ele>
        <time>2021-12-01T11:46:48Z</time>
      </trkpt>
      <trkpt lat="43.59071" lon="3.78287">
        <ele>63.9</ele>
        <time>2021-12-01T11:46:58Z</time>
      </trkpt>
      <trkpt lat="43.5909" lon="3.78336">
        <ele>63.5</ele>
        <time>2021-12-01T11:47:08Z</time>
      </trkpt>
      <trkpt lat="43.591" lon="3.78388">
        <ele>59.1</ele>
        <time>2021-12-01T11:47:18Z</time>
      </trkpt>
      <trkpt lat="43.5911" lon="3.78467">
        <ele>53.4</ele>
        <time>2021-12-01T11:47:28Z</time>
      </trkpt>
      <trkpt lat="43.59103" lon="3.78567">
        <ele>54.6</ele>
        <time>2021-12-01T11:47:38Z</time>
      </trkpt>
      <trkpt lat="43.59084" lon="3.78651">
        <ele>50.6</ele>
        <time>2021-12-01T11:47:48Z</time>
      </trkpt>
      <trkpt lat="43.59068" lon="3.78724">
        <ele>50.1</ele>
        <time>2021-12-01T11:47:58Z</time>
      </trkpt>
      <trkpt lat="43.59089" lon="3.78809">
        <ele>45.3</ele>
        <time>2021-12-01T11:48:08Z</time>
      </trkpt>
      <trkpt lat="43.59119" lon="3.78868">
        <ele>42.3</ele>
        <time>2021-12-01T11:48:18Z</time>
      </trkpt>
      <trkpt lat="43.59136" lon="3.78928">
        <ele>41.5</ele>
        <time>2021-12-01T11:48:28Z</time>
      </trkpt>
      <trkpt lat="43.5917" lon="3.78984">
        <ele>42.2</ele>
        <time>2021-12-01T11:48:38Z</time>
      </trkpt>
      <trkpt lat="43.59185" lon="3.79035">
        <ele>43.7</ele>
        <time>2021-12-01T11:48:48Z</time>
      </trkpt>
      <trkpt lat="43.59171" lon="3.79091">
        <ele>44</ele>
        <time>2021-12-01T11:48:58Z</time>
      </trkpt>
      <trkpt lat="43.59162" lon="3.79156">
        <ele>42.6</ele>
        <time>2021-12-01T11:49:08Z</time>
      </trkpt>
      <trkpt lat="43.59153" lon="3.79241">
        <ele>37.1</ele>
        <time>2021-12-01T11:49:18Z</time>
      </trkpt>
      <trkpt lat="43.59127" lon="3.79305">
        <ele>34.5</ele>
        <time>2021-12-01T11:49:28Z</time>
      </trkpt>
      <trkpt lat="43.59116" lon="3.79354">
        <ele>34.8</ele>
        <time>2021-12-01T11:49:38Z</time>
      </trkpt>
      <trkpt lat="43.59107" lon="3.79408">
        <ele>35.5</ele>
        <time>2021-12-01T11:49:48Z</time>
      </trkpt>
      <trkpt lat="43.59096" lon="3.79448">
        <ele>35.6</ele>
        <time>2021-12-01T11:49:58Z</time>
      </trkpt>
      <trkpt lat="43.59082" lon="3.79492">
        <ele>36.6</ele>
        <time>2021-12-01T11:50:08Z</time>
      </trkpt>
      <trkpt lat="43.59096" lon="3.79514">
        <ele>37.2</ele>
        <time>2021-12-01T11:50:18Z</time>
      </trkpt>
      <trkpt lat="43.59122" lon="3.79544">
        <ele>38.4</ele>
        <time>2021-12-01T11:50:28Z</time>
      </trkpt>
      <trkpt lat="43.59139" lon="3.79567">
        <ele>40.7</ele>
        <time>2021-12-01T11:50:38Z</time>
      </trkpt>
      <trkpt lat="43.59151" lon="3.79557">
        <ele>41.3</ele>
        <time>2021-12-01T11:50:48Z</time>
      </trkpt>
      <trkpt lat="43.59168" lon="3.79519">
        <ele>42.5</ele>
        <time>2021-12-01T11:50:58Z</time>
      </trkpt>
      <trkpt lat="43.59189" lon="3.79479">
        <ele>42.3</ele>
        <time>2021-12-01T11:51:08Z</time>
      </trkpt>
      <trkpt lat="43.59208" lon="3.79423">
        <ele>40.7</ele>
        <time>2021-12-01T11:51:18Z</time>
      </trkpt>
      <trkpt lat="43.59229" lon="3.79373">
        <ele>40.9</ele>
        <time>2021-12-01T11:51:28Z</time>
      </trkpt>
      <trkpt lat="43.59261" lon="3.79366">
        <ele>43.8</ele>
        <time>2021-12-01T11:51:38Z</time>
      </trkpt>
      <trkpt lat="43.59263" lon="3.79408">
        <ele>45.6</ele>
        <time>2021-12-01T11:51:48Z</time>
      </trkpt>
      <trkpt lat="43.59267" lon="3.79448">
        <ele>47</ele>
        <time>2021-12-01T11:51:58Z</time>
      </trkpt>
      <trkpt lat="43.59269" lon="3.79488">
        <ele>48.2</ele>
        <time>2021-12-01T11:52:08Z</time>
      </trkpt>
      <trkpt lat="43.59269" lon="3.79529">
        <ele>49.7</ele>
        <time>2021-12-01T11:52:18Z</time>
      </trkpt>
      <trkpt lat="43.59274" lon="3.79563">
        <ele>50.6</ele>
        <time>2021-12-01T11:52:28Z</time>
      </trkpt>
      <trkpt lat="43.59286" lon="3.79592">
        <ele>51.8</ele>
        <time>2021-12-01T11:52:38Z</time>
      </trkpt>
      <trkpt lat="43.59298" lon="3.79622">
        <ele>52.7</ele>
        <time>2021-12-01T11:52:48Z</time>
      </trkpt>
      <trkpt lat="43.59316" lon="3.79671">
        <ele>51.5</ele>
        <time>2021-12-01T11:52:58Z</time>
      </trkpt>
      <trkpt lat="43.59337" lon="3.79737">
        <ele>49.5</ele>
        <time>2021-12-01T11:53:08Z</time>
      </trkpt>
      <trkpt lat="43.59343" lon="3.79777">
        <ele>48.4</ele>
        <time>2021-12-01T11:53:18Z</time>
      </trkpt>
      <trkpt lat="43.59307" lon="3.79823">
        <ele>48</ele>
        <time>2021-12-01T11:53:28Z</time>
      </trkpt>
      <trkpt lat="43.59264" lon="3.79869">
        <ele>46.9</ele>
        <time>2021-12-01T11:53:38Z</time>
      </trkpt>
      <trkpt lat="43.59224" lon="3.79911">
        <ele>45.3</ele>
        <time>2021-12-01T11:53:48Z</time>
      </trkpt>
      <trkpt lat="43.59185" lon="3.79949">
        <ele>45.1</ele>
        <time>2021-12-01T11:53:58Z</time>
      </trkpt>
      <trkpt lat="43.5919" lon="3.79999">
        <ele>45</ele>
        <time>2021-12-01T11:54:08Z</time>
      </trkpt>
      <trkpt lat="43.59218" lon="3.80049">
        <ele>45.8</ele>
        <time>2021-12-01T11:54:18Z</time>
      </trkpt>
      <trkpt lat="43.59243" lon="3.80093">
        <ele>47.7</ele>
        <time>2021-12-01T11:54:28Z</time>
      </trkpt>
      <trkpt lat="43.59276" lon="3.80088">
        <ele>48.9</ele>
        <time>2021-12-01T11:54:38Z</time>
      </trkpt>
      <trkpt lat="43.59315" lon="3.80072">
        <ele>49.5</ele>
        <time>2021-12-01T11:54:48Z</time>
      </trkpt>
      <trkpt lat="43.59354" lon="3.80095">
        <ele>50.7</ele>
        <time>2021-12-01T11:54:58Z</time>
      </trkpt>
      <trkpt lat="43.59394" lon="3.80111">
        <ele>52.2</ele>
        <time>2021-12-01T11:55:08Z</time>
      </trkpt>
      <trkpt lat="43.59432" lon="3.80128">
        <ele>53.6</ele>
        <time>2021-12-01T11:55:18Z</time>
      </trkpt>
      <trkpt lat="43.5947" lon="3.80139">
        <ele>54.9</ele>
        <time>2021-12-01T11:55:28Z</time>
      </trkpt>
      <trkpt lat="43.59499" lon="3.80159">
        <ele>56</ele>
        <time>2021-12-01T11:55:38Z</time>
      </trkpt>
      <trkpt lat="43.59514" lon="3.80207">
        <ele>55.5</ele>
        <time>2021-12-01T11:55:48Z</time>
      </trkpt>
      <trkpt lat="43.59539" lon="3.80256">
        <ele>55.3</ele>
        <time>2021-12-01T11:55:58Z</time>
      </trkpt>
      <trkpt lat="43.59572" lon="3.80306">
        <ele>55</ele>
        <time>2021-12-01T11:56:08Z</time>
      </trkpt>
      <trkpt lat="43.59606" lon="3.80355">
        <ele>54.9</ele>
        <time>2021-12-01T11:56:18Z</time>
      </trkpt>
      <trkpt lat="43.59637" lon="3.80405">
        <ele>55.3</ele>
        <time>2021-12-01T11:56:28Z</time>
      </trkpt>
      <trkpt lat="43.5965" lon="3.80467">
        <ele>54.6</ele>
        <time>2021-12-01T11:56:38Z</time>
      </trkpt>
      <trkpt lat="43.59671" lon="3.80526">
        <ele>54</ele>
        <time>2021-12-01T11:56:48Z</time>
      </trkpt>
      <trkpt lat="43.59684" lon="3.80593">
        <ele>53</ele>
        <time>2021-12-01T11:56:58Z</time>
      </trkpt>
      <trkpt lat="43.59689" lon="3.80648">
        <ele>52.7</ele>
        <time>2021-12-01T11:57:08Z</time>
      </trkpt>
      <trkpt lat="43.59701" lon="3.80707">
        <ele>52</ele>
        <time>2021-12-01T11:57:18Z</time>
      </trkpt>
      <trkpt lat="43.59715" lon="3.80778">
        <ele>51</ele>
        <time>2021-12-01T11:57:28Z</time>
      </trkpt>
      <trkpt lat="43.59731" lon="3.8085">
        <ele>51</ele>
        <time>2021-12-01T11:57:38Z</time>
      </trkpt>
      <trkpt lat="43.59744" lon="3.80923">
        <ele>50.2</ele>
        <time>2021-12-01T11:57:48Z</time>
      </trkpt>
      <trkpt lat="43.59772" lon="3.80995">
        <ele>48.4</ele>
        <time>2021-12-01T11:57:58Z</time>
      </trkpt>
      <trkpt lat="43.59808" lon="3.8107">
        <ele>45.3</ele>
        <time>2021-12-01T11:58:08Z</time>
      </trkpt>
      <trkpt lat="43.59838" lon="3.81143">
        <ele>43.7</ele>
        <time>2021-12-01T11:58:18Z</time>
      </trkpt>
      <trkpt lat="43.59884" lon="3.81209">
        <ele>39.8</ele>
        <time>2021-12-01T11:58:28Z</time>
      </trkpt>
      <trkpt lat="43.5995" lon="3.81263">
        <ele>35</ele>
        <time>2021-12-01T11:58:38Z</time>
      </trkpt>
      <trkpt lat="43.60009" lon="3.81339">
        <ele>30.4</ele>
        <time>2021-12-01T11:58:48Z</time>
      </trkpt>
      <trkpt lat="43.60032" lon="3.81404">
        <ele>29.2</ele>
        <time>2021-12-01T11:58:58Z</time>
      </trkpt>
      <trkpt lat="43.60012" lon="3.81474">
        <ele>29</ele>
        <time>2021-12-01T11:59:08Z</time>
      </trkpt>
      <trkpt lat="43.6004" lon="3.81502">
        <ele>28.4</ele>
        <time>2021-12-01T11:59:18Z</time>
      </trkpt>
      <trkpt lat="43.60095" lon="3.815">
        <ele>29.4</ele>
        <time>2021-12-01T11:59:28Z</time>
      </trkpt>
      <trkpt lat="43.60148" lon="3.81503">
        <ele>29.8</ele>
        <time>2021-12-01T11:59:38Z</time>
      </trkpt>
      <trkpt lat="43.60197" lon="3.81494">
        <ele>30.2</ele>
        <time>2021-12-01T11:59:48Z</time>
      </trkpt>
      <trkpt lat="43.60238" lon="3.81494">
        <ele>30.7</ele>
        <time>2021-12-01T11:59:58Z</time>
      </trkpt>
      <trkpt lat="43.60281" lon="3.81518">
        <ele>29.7</ele>
        <time>2021-12-01T12:00:08Z</time>
      </trkpt>
      <trkpt lat="43.60276" lon="3.81546">
        <ele>28.3</ele>
        <time>2021-12-01T12:00:18Z</time>
      </trkpt>
      <trkpt lat="43.60263" lon="3.81601">
        <ele>28</ele>
        <time>2021-12-01T12:00:28Z</time>
      </trkpt>
      <trkpt lat="43.60289" lon="3.81629">
        <ele>26.8</ele>
        <time>2021-12-01T12:00:38Z</time>
      </trkpt>
      <trkpt lat="43.60311" lon="3.81664">
        <ele>25.8</ele>
        <time>2021-12-01T12:00:48Z</time>
      </trkpt>
      <trkpt lat="43.60317" lon="3.81724">
        <ele>26.2</ele>
        <time>2021-12-01T12:00:58Z</time>
      </trkpt>
      <trkpt lat="43.60342" lon="3.81782">
        <ele>26.6</ele>
        <time>2021-12-01T12:01:08Z</time>
      </trkpt>
      <trkpt lat="43.60381" lon="3.81818">
        <ele>27.3</ele>
        <time>2021-12-01T12:01:18Z</time>
      </trkpt>
      <trkpt lat="43.60427" lon="3.81832">
        <ele>28.6</ele>
        <time>2021-12-01T12:01:28Z</time>
      </trkpt>
      <trkpt lat="43.60475" lon="3.8185">
        <ele>26.8</ele>
        <time>2021-12-01T12:01:38Z</time>
      </trkpt>
      <trkpt lat="43.60515" lon="3.81877">
        <ele>27.7</ele>
        <time>2021-12-01T12:01:48Z</time>
      </trkpt>
      <trkpt lat="43.60555" lon="3.81919">
        <ele>28.6</ele>
        <time>2021-12-01T12:01:58Z</time>
      </trkpt>
      <trkpt lat="43.60598" lon="3.81921">
        <ele>28.9</ele>
        <time>2021-12-01T12:02:08Z</time>
      </trkpt>
      <trkpt lat="43.60626" lon="3.81874">
        <ele>29.3</ele>
        <time>2021-12-01T12:02:18Z</time>
      </trkpt>
      <trkpt lat="43.60647" lon="3.81851">
        <ele>31.7</ele>
        <time>2021-12-01T12:02:28Z</time>
      </trkpt>
      <trkpt lat="43.60682" lon="3.81801">
        <ele>32.2</ele>
        <time>2021-12-01T12:02:41Z</time>
      </trkpt>
      <trkpt lat="43.60707" lon="3.81821">
        <ele>31.2</ele>
        <time>2021-12-01T12:02:51Z</time>
      </trkpt>
      <trkpt lat="43.60737" lon="3.8187">
        <ele>30.6</ele>
        <time>2021-12-01T12:03:01Z</time>
      </trkpt>
      <trkpt lat="43.60772" lon="3.81915">
        <ele>30.2</ele>
        <time>2021-12-01T12:03:11Z</time>
      </trkpt>
      <trkpt lat="43.60819" lon="3.81939">
        <ele>30</ele>
        <time>2021-12-01T12:03:21Z</time>
      </trkpt>
      <trkpt lat="43.60867" lon="3.81942">
        <ele>30</ele>
        <time>2021-12-01T12:03:31Z</time>
      </trkpt>
      <trkpt lat="43.60912" lon="3.81931">
        <ele>30</ele>
        <time>2021-12-01T12:03:41Z</time>
      </trkpt>
      <trkpt lat="43.6093" lon="3.81946">
        <ele>29</ele>
        <time>2021-12-01T12:03:51Z</time>
      </trkpt>
      <trkpt lat="43.60952" lon="3.81936">
        <ele>28.5</ele>
        <time>2021-12-01T12:04:01Z</time>
      </trkpt>
      <trkpt lat="43.60986" lon="3.81926">
        <ele>29.5</ele>
        <time>2021-12-01T12:04:11Z</time>
      </trkpt>
      <trkpt lat="43.61024" lon="3.81906">
        <ele>29.5</ele>
        <time>2021-12-01T12:04:21Z</time>
      </trkpt>
      <trkpt lat="43.61067" lon="3.81885">
        <ele>30.2</ele>
        <time>2021-12-01T12:04:31Z</time>
      </trkpt>
      <trkpt lat="43.61113" lon="3.81868">
        <ele>30</ele>
        <time>2021-12-01T12:04:41Z</time>
      </trkpt>
      <trkpt lat="43.61158" lon="3.81841">
        <ele>30.6</ele>
        <time>2021-12-01T12:04:51Z</time>
      </trkpt>
      <trkpt lat="43.61203" lon="3.81809">
        <ele>30.2</ele>
        <time>2021-12-01T12:05:01Z</time>
      </trkpt>
      <trkpt lat="43.61241" lon="3.8178">
        <ele>30.2</ele>
        <time>2021-12-01T12:05:11Z</time>
      </trkpt>
      <trkpt lat="43.61282" lon="3.8176">
        <ele>31.6</ele>
        <time>2021-12-01T12:05:21Z</time>
      </trkpt>
      <trkpt lat="43.61335" lon="3.81755">
        <ele>30.4</ele>
        <time>2021-12-01T12:05:31Z</time>
      </trkpt>
      <trkpt lat="43.6138" lon="3.81743">
        <ele>31</ele>
        <time>2021-12-01T12:05:41Z</time>
      </trkpt>
      <trkpt lat="43.61416" lon="3.81711">
        <ele>31.3</ele>
        <time>2021-12-01T12:05:51Z</time>
      </trkpt>
      <trkpt lat="43.61452" lon="3.8168">
        <ele>32.4</ele>
        <time>2021-12-01T12:06:01Z</time>
      </trkpt>
      <trkpt lat="43.61454" lon="3.81627">
        <ele>33.9</ele>
        <time>2021-12-01T12:06:11Z</time>
      </trkpt>
      <trkpt lat="43.61461" lon="3.8159">
        <ele>36.7</ele>
        <time>2021-12-01T12:06:21Z</time>
      </trkpt>
      <trkpt lat="43.6147" lon="3.81562">
        <ele>38</ele>
        <time>2021-12-01T12:06:31Z</time>
      </trkpt>
      <trkpt lat="43.61482" lon="3.81597">
        <ele>37.4</ele>
        <time>2021-12-01T12:06:41Z</time>
      </trkpt>
      <trkpt lat="43.61494" lon="3.8164">
        <ele>37.1</ele>
        <time>2021-12-01T12:06:51Z</time>
      </trkpt>
      <trkpt lat="43.61508" lon="3.81686">
        <ele>34.2</ele>
        <time>2021-12-01T12:07:01Z</time>
      </trkpt>
      <trkpt lat="43.61522" lon="3.81739">
        <ele>34.8</ele>
        <time>2021-12-01T12:07:11Z</time>
      </trkpt>
      <trkpt lat="43.61536" lon="3.81795">
        <ele>37</ele>
        <time>2021-12-01T12:07:21Z</time>
      </trkpt>
      <trkpt lat="43.61547" lon="3.81838">
        <ele>36.9</ele>
        <time>2021-12-01T12:07:31Z</time>
      </trkpt>
      <trkpt lat="43.61554" lon="3.81891">
        <ele>37.8</ele>
        <time>2021-12-01T12:07:41Z</time>
      </trkpt>
      <trkpt lat="43.61548" lon="3.81945">
        <ele>37.2</ele>
        <time>2021-12-01T12:07:51Z</time>
      </trkpt>
      <trkpt lat="43.61538" lon="3.81999">
        <ele>39</ele>
        <time>2021-12-01T12:08:01Z</time>
      </trkpt>
      <trkpt lat="43.61532" lon="3.82047">
        <ele>40.8</ele>
        <time>2021-12-01T12:08:11Z</time>
      </trkpt>
      <trkpt lat="43.61525" lon="3.82093">
        <ele>42.4</ele>
        <time>2021-12-01T12:08:21Z</time>
      </trkpt>
      <trkpt lat="43.61519" lon="3.82149">
        <ele>43</ele>
        <time>2021-12-01T12:08:31Z</time>
      </trkpt>
      <trkpt lat="43.61513" lon="3.82204">
        <ele>44.2</ele>
        <time>2021-12-01T12:08:41Z</time>
      </trkpt>
      <trkpt lat="43.61469" lon="3.8221">
        <ele>43.5</ele>
        <time>2021-12-01T12:08:51Z</time>
      </trkpt>
      <trkpt lat="43.61432" lon="3.82228">
        <ele>43.4</ele>
        <time>2021-12-01T12:09:01Z</time>
      </trkpt>
      <trkpt lat="43.61408" lon="3.82242">
        <ele>44.4</ele>
        <time>2021-12-01T12:09:11Z</time>
      </trkpt>
      <trkpt lat="43.6139" lon="3.82266">
        <ele>46.1</ele>
        <time>2021-12-01T12:09:21Z</time>
      </trkpt>
      <trkpt lat="43.61376" lon="3.82289">
        <ele>48.7</ele>
        <time>2021-12-01T12:09:31Z</time>
      </trkpt>
      <trkpt lat="43.61372" lon="3.82318">
        <ele>50.9</ele>
        <time>2021-12-01T12:09:41Z</time>
      </trkpt>
      <trkpt lat="43.61373" lon="3.82344">
        <ele>50.8</ele>
        <time>2021-12-01T12:09:51Z</time>
      </trkpt>
      <trkpt lat="43.61355" lon="3.82338">
        <ele>52.9</ele>
        <time>2021-12-01T12:10:01Z</time>
      </trkpt>
      <trkpt lat="43.61337" lon="3.82333">
        <ele>53.9</ele>
        <time>2021-12-01T12:10:11Z</time>
      </trkpt>
      <trkpt lat="43.61323" lon="3.82353">
        <ele>52.4</ele>
        <time>2021-12-01T12:10:21Z</time>
      </trkpt>
      <trkpt lat="43.61314" lon="3.82377">
        <ele>50.3</ele>
        <time>2021-12-01T12:10:31Z</time>
      </trkpt>
      <trkpt lat="43.61317" lon="3.82418">
        <ele>49.9</ele>
        <time>2021-12-01T12:10:41Z</time>
      </trkpt>
      <trkpt lat="43.61307" lon="3.82461">
        <ele>50.9</ele>
        <time>2021-12-01T12:10:51Z</time>
      </trkpt>
      <trkpt lat="43.61277" lon="3.82496">
        <ele>51.1</ele>
        <time>2021-12-01T12:11:01Z</time>
      </trkpt>
      <trkpt lat="43.61241" lon="3.82518">
        <ele>51.6</ele>
        <time>2021-12-01T12:11:11Z</time>
      </trkpt>
      <trkpt lat="43.61213" lon="3.82539">
        <ele>53.4</ele>
        <time>2021-12-01T12:11:21Z</time>
      </trkpt>
      <trkpt lat="43.61198" lon="3.82586">
        <ele>54.3</ele>
        <time>2021-12-01T12:11:31Z</time>
      </trkpt>
      <trkpt lat="43.61191" lon="3.82635">
        <ele>54.9</ele>
        <time>2021-12-01T12:11:41Z</time>
      </trkpt>
      <trkpt lat="43.6118" lon="3.82692">
        <ele>55</ele>
        <time>2021-12-01T12:11:51Z</time>
      </trkpt>
      <trkpt lat="43.6117" lon="3.82751">
        <ele>55.8</ele>
        <time>2021-12-01T12:12:01Z</time>
      </trkpt>
      <trkpt lat="43.61162" lon="3.8281">
        <ele>56.2</ele>
        <time>2021-12-01T12:12:11Z</time>
      </trkpt>
      <trkpt lat="43.61171" lon="3.82864">
        <ele>56.8</ele>
        <time>2021-12-01T12:12:21Z</time>
      </trkpt>
      <trkpt lat="43.61155" lon="3.82878">
        <ele>57</ele>
        <time>2021-12-01T12:12:31Z</time>
      </trkpt>
    </trkseg>
  </trk>
</gpx>